<?xml version="1.0" encoding="UTF-8" standalone="no" ?>
<gpx xmlns="http://www.topografix.com/GPX/1/1" xmlns:xsi="http://www.w3.org/2001/XMLSchema-instance" xsi:schemaLocation="http://www.topografix.com/GPX/1/1 http://www.topografix.com/GPX/1/1/gpx.xsd" version="1.1" creator="VisuGPX - https://www.visugpx.com">
  <metadata>
    <name>Tellin MARCHE ADEPS 2018 (Juil)</name>
    <desc><![CDATA[Marche sympa pour se ressourcé]]></desc>
  </metadata>
  <trk>
    <name><![CDATA[duo scooby & choupy]]></name>
    <trkseg>
      <trkpt lat="50.08889" lon="5.22308">
        <ele>206</ele>
        <time>2018-07-29T08:32:24Z</time>
      </trkpt>
      <trkpt lat="50.08885" lon="5.22316">
        <ele>207</ele>
        <time>2018-07-29T08:32:34Z</time>
      </trkpt>
      <trkpt lat="50.08879" lon="5.22328">
        <ele>207</ele>
        <time>2018-07-29T08:32:44Z</time>
      </trkpt>
      <trkpt lat="50.0887" lon="5.2233">
        <ele>207</ele>
        <time>2018-07-29T08:32:55Z</time>
      </trkpt>
      <trkpt lat="50.08879" lon="5.22328">
        <ele>207</ele>
        <time>2018-07-29T08:33:06Z</time>
      </trkpt>
      <trkpt lat="50.08867" lon="5.22336">
        <ele>206</ele>
        <time>2018-07-29T08:33:16Z</time>
      </trkpt>
      <trkpt lat="50.08849" lon="5.22342">
        <ele>206</ele>
        <time>2018-07-29T08:33:26Z</time>
      </trkpt>
      <trkpt lat="50.0885" lon="5.22341">
        <ele>207</ele>
        <time>2018-07-29T08:33:37Z</time>
      </trkpt>
      <trkpt lat="50.08831" lon="5.2234">
        <ele>207</ele>
        <time>2018-07-29T08:33:48Z</time>
      </trkpt>
      <trkpt lat="50.08822" lon="5.22337">
        <ele>207</ele>
        <time>2018-07-29T08:33:58Z</time>
      </trkpt>
      <trkpt lat="50.08815" lon="5.22336">
        <ele>207</ele>
        <time>2018-07-29T08:34:09Z</time>
      </trkpt>
      <trkpt lat="50.08807" lon="5.22335">
        <ele>208</ele>
        <time>2018-07-29T08:34:20Z</time>
      </trkpt>
      <trkpt lat="50.08796" lon="5.2233">
        <ele>210</ele>
        <time>2018-07-29T08:34:30Z</time>
      </trkpt>
      <trkpt lat="50.08775" lon="5.22326">
        <ele>210</ele>
        <time>2018-07-29T08:34:41Z</time>
      </trkpt>
      <trkpt lat="50.08759" lon="5.22325">
        <ele>208</ele>
        <time>2018-07-29T08:34:51Z</time>
      </trkpt>
      <trkpt lat="50.08769" lon="5.22322">
        <ele>209</ele>
        <time>2018-07-29T08:35:02Z</time>
      </trkpt>
      <trkpt lat="50.08762" lon="5.22323">
        <ele>210</ele>
        <time>2018-07-29T08:35:12Z</time>
      </trkpt>
      <trkpt lat="50.08749" lon="5.2232">
        <ele>210</ele>
        <time>2018-07-29T08:35:22Z</time>
      </trkpt>
      <trkpt lat="50.08733" lon="5.22313">
        <ele>210</ele>
        <time>2018-07-29T08:35:33Z</time>
      </trkpt>
      <trkpt lat="50.08718" lon="5.2231">
        <ele>211</ele>
        <time>2018-07-29T08:35:44Z</time>
      </trkpt>
      <trkpt lat="50.08705" lon="5.22306">
        <ele>212</ele>
        <time>2018-07-29T08:35:55Z</time>
      </trkpt>
      <trkpt lat="50.08693" lon="5.22305">
        <ele>211</ele>
        <time>2018-07-29T08:36:06Z</time>
      </trkpt>
      <trkpt lat="50.08682" lon="5.22304">
        <ele>212</ele>
        <time>2018-07-29T08:36:16Z</time>
      </trkpt>
      <trkpt lat="50.0867" lon="5.22302">
        <ele>213</ele>
        <time>2018-07-29T08:36:26Z</time>
      </trkpt>
      <trkpt lat="50.08658" lon="5.22301">
        <ele>212</ele>
        <time>2018-07-29T08:36:37Z</time>
      </trkpt>
      <trkpt lat="50.08649" lon="5.22299">
        <ele>214</ele>
        <time>2018-07-29T08:36:47Z</time>
      </trkpt>
      <trkpt lat="50.08637" lon="5.22298">
        <ele>214</ele>
        <time>2018-07-29T08:36:58Z</time>
      </trkpt>
      <trkpt lat="50.08629" lon="5.22299">
        <ele>214</ele>
        <time>2018-07-29T08:37:08Z</time>
      </trkpt>
      <trkpt lat="50.08616" lon="5.22298">
        <ele>214</ele>
        <time>2018-07-29T08:37:19Z</time>
      </trkpt>
      <trkpt lat="50.08602" lon="5.22299">
        <ele>215</ele>
        <time>2018-07-29T08:37:30Z</time>
      </trkpt>
      <trkpt lat="50.08589" lon="5.22301">
        <ele>215</ele>
        <time>2018-07-29T08:37:40Z</time>
      </trkpt>
      <trkpt lat="50.08577" lon="5.22301">
        <ele>215</ele>
        <time>2018-07-29T08:37:51Z</time>
      </trkpt>
      <trkpt lat="50.08566" lon="5.22301">
        <ele>215</ele>
        <time>2018-07-29T08:38:02Z</time>
      </trkpt>
      <trkpt lat="50.08555" lon="5.22301">
        <ele>215</ele>
        <time>2018-07-29T08:38:12Z</time>
      </trkpt>
      <trkpt lat="50.08543" lon="5.22301">
        <ele>216</ele>
        <time>2018-07-29T08:38:22Z</time>
      </trkpt>
      <trkpt lat="50.08531" lon="5.22299">
        <ele>216</ele>
        <time>2018-07-29T08:38:32Z</time>
      </trkpt>
      <trkpt lat="50.08519" lon="5.22295">
        <ele>216</ele>
        <time>2018-07-29T08:38:43Z</time>
      </trkpt>
      <trkpt lat="50.08507" lon="5.22299">
        <ele>217</ele>
        <time>2018-07-29T08:38:54Z</time>
      </trkpt>
      <trkpt lat="50.08497" lon="5.22302">
        <ele>217</ele>
        <time>2018-07-29T08:39:04Z</time>
      </trkpt>
      <trkpt lat="50.08485" lon="5.22302">
        <ele>218</ele>
        <time>2018-07-29T08:39:15Z</time>
      </trkpt>
      <trkpt lat="50.08472" lon="5.22301">
        <ele>218</ele>
        <time>2018-07-29T08:39:26Z</time>
      </trkpt>
      <trkpt lat="50.08461" lon="5.22303">
        <ele>219</ele>
        <time>2018-07-29T08:39:36Z</time>
      </trkpt>
      <trkpt lat="50.0845" lon="5.22305">
        <ele>219</ele>
        <time>2018-07-29T08:39:47Z</time>
      </trkpt>
      <trkpt lat="50.08438" lon="5.22307">
        <ele>220</ele>
        <time>2018-07-29T08:39:57Z</time>
      </trkpt>
      <trkpt lat="50.08427" lon="5.22313">
        <ele>220</ele>
        <time>2018-07-29T08:40:08Z</time>
      </trkpt>
      <trkpt lat="50.08418" lon="5.22324">
        <ele>221</ele>
        <time>2018-07-29T08:40:19Z</time>
      </trkpt>
      <trkpt lat="50.08412" lon="5.22335">
        <ele>222</ele>
        <time>2018-07-29T08:40:29Z</time>
      </trkpt>
      <trkpt lat="50.08407" lon="5.22347">
        <ele>222</ele>
        <time>2018-07-29T08:40:39Z</time>
      </trkpt>
      <trkpt lat="50.08398" lon="5.22358">
        <ele>223</ele>
        <time>2018-07-29T08:40:50Z</time>
      </trkpt>
      <trkpt lat="50.08388" lon="5.22368">
        <ele>223</ele>
        <time>2018-07-29T08:41:01Z</time>
      </trkpt>
      <trkpt lat="50.08378" lon="5.22379">
        <ele>224</ele>
        <time>2018-07-29T08:41:12Z</time>
      </trkpt>
      <trkpt lat="50.08369" lon="5.22388">
        <ele>224</ele>
        <time>2018-07-29T08:41:23Z</time>
      </trkpt>
      <trkpt lat="50.0836" lon="5.22396">
        <ele>225</ele>
        <time>2018-07-29T08:41:34Z</time>
      </trkpt>
      <trkpt lat="50.08348" lon="5.22394">
        <ele>225</ele>
        <time>2018-07-29T08:41:45Z</time>
      </trkpt>
      <trkpt lat="50.0834" lon="5.22401">
        <ele>227</ele>
        <time>2018-07-29T08:41:56Z</time>
      </trkpt>
      <trkpt lat="50.08332" lon="5.22406">
        <ele>228</ele>
        <time>2018-07-29T08:42:07Z</time>
      </trkpt>
      <trkpt lat="50.08322" lon="5.22416">
        <ele>229</ele>
        <time>2018-07-29T08:42:18Z</time>
      </trkpt>
      <trkpt lat="50.08314" lon="5.22425">
        <ele>230</ele>
        <time>2018-07-29T08:42:29Z</time>
      </trkpt>
      <trkpt lat="50.08306" lon="5.22434">
        <ele>232</ele>
        <time>2018-07-29T08:42:40Z</time>
      </trkpt>
      <trkpt lat="50.08299" lon="5.2244">
        <ele>235</ele>
        <time>2018-07-29T08:42:50Z</time>
      </trkpt>
      <trkpt lat="50.08291" lon="5.22448">
        <ele>236</ele>
        <time>2018-07-29T08:43:00Z</time>
      </trkpt>
      <trkpt lat="50.08283" lon="5.22449">
        <ele>237</ele>
        <time>2018-07-29T08:43:11Z</time>
      </trkpt>
      <trkpt lat="50.08275" lon="5.22439">
        <ele>238</ele>
        <time>2018-07-29T08:43:22Z</time>
      </trkpt>
      <trkpt lat="50.0827" lon="5.22425">
        <ele>238</ele>
        <time>2018-07-29T08:43:33Z</time>
      </trkpt>
      <trkpt lat="50.08264" lon="5.22414">
        <ele>239</ele>
        <time>2018-07-29T08:43:43Z</time>
      </trkpt>
      <trkpt lat="50.08257" lon="5.22404">
        <ele>240</ele>
        <time>2018-07-29T08:43:53Z</time>
      </trkpt>
      <trkpt lat="50.08249" lon="5.22399">
        <ele>241</ele>
        <time>2018-07-29T08:44:04Z</time>
      </trkpt>
      <trkpt lat="50.0824" lon="5.22401">
        <ele>242</ele>
        <time>2018-07-29T08:44:14Z</time>
      </trkpt>
      <trkpt lat="50.08232" lon="5.22406">
        <ele>244</ele>
        <time>2018-07-29T08:44:25Z</time>
      </trkpt>
      <trkpt lat="50.08223" lon="5.22412">
        <ele>245</ele>
        <time>2018-07-29T08:44:36Z</time>
      </trkpt>
      <trkpt lat="50.08215" lon="5.22416">
        <ele>246</ele>
        <time>2018-07-29T08:44:47Z</time>
      </trkpt>
      <trkpt lat="50.08212" lon="5.22416">
        <ele>247</ele>
        <time>2018-07-29T08:44:57Z</time>
      </trkpt>
      <trkpt lat="50.08206" lon="5.22417">
        <ele>248</ele>
        <time>2018-07-29T08:45:08Z</time>
      </trkpt>
      <trkpt lat="50.08197" lon="5.2242">
        <ele>250</ele>
        <time>2018-07-29T08:45:19Z</time>
      </trkpt>
      <trkpt lat="50.08189" lon="5.22425">
        <ele>251</ele>
        <time>2018-07-29T08:45:29Z</time>
      </trkpt>
      <trkpt lat="50.08182" lon="5.22431">
        <ele>252</ele>
        <time>2018-07-29T08:45:39Z</time>
      </trkpt>
      <trkpt lat="50.08179" lon="5.22438">
        <ele>253</ele>
        <time>2018-07-29T08:45:50Z</time>
      </trkpt>
      <trkpt lat="50.08179" lon="5.22441">
        <ele>254</ele>
        <time>2018-07-29T08:46:01Z</time>
      </trkpt>
      <trkpt lat="50.0818" lon="5.22446">
        <ele>254</ele>
        <time>2018-07-29T08:46:12Z</time>
      </trkpt>
      <trkpt lat="50.08179" lon="5.22449">
        <ele>256</ele>
        <time>2018-07-29T08:46:22Z</time>
      </trkpt>
      <trkpt lat="50.08179" lon="5.22453">
        <ele>256</ele>
        <time>2018-07-29T08:46:33Z</time>
      </trkpt>
      <trkpt lat="50.08174" lon="5.22459">
        <ele>256</ele>
        <time>2018-07-29T08:46:43Z</time>
      </trkpt>
      <trkpt lat="50.0817" lon="5.22463">
        <ele>258</ele>
        <time>2018-07-29T08:46:53Z</time>
      </trkpt>
      <trkpt lat="50.0816" lon="5.2247">
        <ele>259</ele>
        <time>2018-07-29T08:47:03Z</time>
      </trkpt>
      <trkpt lat="50.08156" lon="5.22471">
        <ele>258</ele>
        <time>2018-07-29T08:47:14Z</time>
      </trkpt>
      <trkpt lat="50.0815" lon="5.22478">
        <ele>261</ele>
        <time>2018-07-29T08:47:25Z</time>
      </trkpt>
      <trkpt lat="50.08145" lon="5.22483">
        <ele>262</ele>
        <time>2018-07-29T08:47:35Z</time>
      </trkpt>
      <trkpt lat="50.08139" lon="5.22493">
        <ele>263</ele>
        <time>2018-07-29T08:47:45Z</time>
      </trkpt>
      <trkpt lat="50.08136" lon="5.22497">
        <ele>264</ele>
        <time>2018-07-29T08:47:55Z</time>
      </trkpt>
      <trkpt lat="50.0813" lon="5.22504">
        <ele>265</ele>
        <time>2018-07-29T08:48:06Z</time>
      </trkpt>
      <trkpt lat="50.08123" lon="5.22513">
        <ele>267</ele>
        <time>2018-07-29T08:48:16Z</time>
      </trkpt>
      <trkpt lat="50.08119" lon="5.22519">
        <ele>267</ele>
        <time>2018-07-29T08:48:27Z</time>
      </trkpt>
      <trkpt lat="50.08113" lon="5.22528">
        <ele>269</ele>
        <time>2018-07-29T08:48:37Z</time>
      </trkpt>
      <trkpt lat="50.08106" lon="5.22539">
        <ele>269</ele>
        <time>2018-07-29T08:48:48Z</time>
      </trkpt>
      <trkpt lat="50.08102" lon="5.2255">
        <ele>269</ele>
        <time>2018-07-29T08:48:58Z</time>
      </trkpt>
      <trkpt lat="50.08098" lon="5.22562">
        <ele>271</ele>
        <time>2018-07-29T08:49:09Z</time>
      </trkpt>
      <trkpt lat="50.08094" lon="5.22574">
        <ele>271</ele>
        <time>2018-07-29T08:49:19Z</time>
      </trkpt>
      <trkpt lat="50.08089" lon="5.22584">
        <ele>273</ele>
        <time>2018-07-29T08:49:30Z</time>
      </trkpt>
      <trkpt lat="50.08083" lon="5.22592">
        <ele>274</ele>
        <time>2018-07-29T08:49:40Z</time>
      </trkpt>
      <trkpt lat="50.08075" lon="5.22599">
        <ele>275</ele>
        <time>2018-07-29T08:49:50Z</time>
      </trkpt>
      <trkpt lat="50.08065" lon="5.22604">
        <ele>276</ele>
        <time>2018-07-29T08:50:01Z</time>
      </trkpt>
      <trkpt lat="50.08056" lon="5.22608">
        <ele>277</ele>
        <time>2018-07-29T08:50:11Z</time>
      </trkpt>
      <trkpt lat="50.08045" lon="5.22613">
        <ele>278</ele>
        <time>2018-07-29T08:50:22Z</time>
      </trkpt>
      <trkpt lat="50.08037" lon="5.22618">
        <ele>279</ele>
        <time>2018-07-29T08:50:33Z</time>
      </trkpt>
      <trkpt lat="50.0803" lon="5.22624">
        <ele>280</ele>
        <time>2018-07-29T08:50:43Z</time>
      </trkpt>
      <trkpt lat="50.08023" lon="5.22627">
        <ele>281</ele>
        <time>2018-07-29T08:50:53Z</time>
      </trkpt>
      <trkpt lat="50.08015" lon="5.22629">
        <ele>282</ele>
        <time>2018-07-29T08:51:03Z</time>
      </trkpt>
      <trkpt lat="50.08004" lon="5.22633">
        <ele>282</ele>
        <time>2018-07-29T08:51:14Z</time>
      </trkpt>
      <trkpt lat="50.07995" lon="5.22635">
        <ele>283</ele>
        <time>2018-07-29T08:51:24Z</time>
      </trkpt>
      <trkpt lat="50.07984" lon="5.22633">
        <ele>283</ele>
        <time>2018-07-29T08:51:35Z</time>
      </trkpt>
      <trkpt lat="50.07974" lon="5.2263">
        <ele>285</ele>
        <time>2018-07-29T08:51:45Z</time>
      </trkpt>
      <trkpt lat="50.07964" lon="5.22625">
        <ele>285</ele>
        <time>2018-07-29T08:51:56Z</time>
      </trkpt>
      <trkpt lat="50.07954" lon="5.22621">
        <ele>286</ele>
        <time>2018-07-29T08:52:07Z</time>
      </trkpt>
      <trkpt lat="50.07947" lon="5.22617">
        <ele>286</ele>
        <time>2018-07-29T08:52:17Z</time>
      </trkpt>
      <trkpt lat="50.07937" lon="5.22615">
        <ele>287</ele>
        <time>2018-07-29T08:52:28Z</time>
      </trkpt>
      <trkpt lat="50.07929" lon="5.22613">
        <ele>286</ele>
        <time>2018-07-29T08:52:38Z</time>
      </trkpt>
      <trkpt lat="50.0792" lon="5.22614">
        <ele>287</ele>
        <time>2018-07-29T08:52:48Z</time>
      </trkpt>
      <trkpt lat="50.07909" lon="5.22615">
        <ele>287</ele>
        <time>2018-07-29T08:52:58Z</time>
      </trkpt>
      <trkpt lat="50.07906" lon="5.22616">
        <ele>288</ele>
        <time>2018-07-29T08:53:09Z</time>
      </trkpt>
      <trkpt lat="50.07895" lon="5.2262">
        <ele>288</ele>
        <time>2018-07-29T08:53:19Z</time>
      </trkpt>
      <trkpt lat="50.07887" lon="5.22624">
        <ele>289</ele>
        <time>2018-07-29T08:53:30Z</time>
      </trkpt>
      <trkpt lat="50.07879" lon="5.2263">
        <ele>289</ele>
        <time>2018-07-29T08:53:40Z</time>
      </trkpt>
      <trkpt lat="50.07868" lon="5.2264">
        <ele>290</ele>
        <time>2018-07-29T08:53:51Z</time>
      </trkpt>
      <trkpt lat="50.0786" lon="5.22648">
        <ele>291</ele>
        <time>2018-07-29T08:54:01Z</time>
      </trkpt>
      <trkpt lat="50.07856" lon="5.22653">
        <ele>291</ele>
        <time>2018-07-29T08:54:11Z</time>
      </trkpt>
      <trkpt lat="50.07848" lon="5.22658">
        <ele>292</ele>
        <time>2018-07-29T08:54:21Z</time>
      </trkpt>
      <trkpt lat="50.07839" lon="5.22665">
        <ele>294</ele>
        <time>2018-07-29T08:54:32Z</time>
      </trkpt>
      <trkpt lat="50.07831" lon="5.22669">
        <ele>295</ele>
        <time>2018-07-29T08:54:42Z</time>
      </trkpt>
      <trkpt lat="50.07822" lon="5.22675">
        <ele>296</ele>
        <time>2018-07-29T08:54:52Z</time>
      </trkpt>
      <trkpt lat="50.07815" lon="5.22679">
        <ele>297</ele>
        <time>2018-07-29T08:55:02Z</time>
      </trkpt>
      <trkpt lat="50.07807" lon="5.22685">
        <ele>298</ele>
        <time>2018-07-29T08:55:12Z</time>
      </trkpt>
      <trkpt lat="50.078" lon="5.22691">
        <ele>300</ele>
        <time>2018-07-29T08:55:23Z</time>
      </trkpt>
      <trkpt lat="50.07792" lon="5.22696">
        <ele>300</ele>
        <time>2018-07-29T08:55:33Z</time>
      </trkpt>
      <trkpt lat="50.07784" lon="5.22703">
        <ele>302</ele>
        <time>2018-07-29T08:55:44Z</time>
      </trkpt>
      <trkpt lat="50.07777" lon="5.22711">
        <ele>303</ele>
        <time>2018-07-29T08:55:54Z</time>
      </trkpt>
      <trkpt lat="50.07771" lon="5.2272">
        <ele>303</ele>
        <time>2018-07-29T08:56:04Z</time>
      </trkpt>
      <trkpt lat="50.07766" lon="5.22734">
        <ele>304</ele>
        <time>2018-07-29T08:56:15Z</time>
      </trkpt>
      <trkpt lat="50.07763" lon="5.22747">
        <ele>306</ele>
        <time>2018-07-29T08:56:25Z</time>
      </trkpt>
      <trkpt lat="50.0776" lon="5.22756">
        <ele>307</ele>
        <time>2018-07-29T08:56:36Z</time>
      </trkpt>
      <trkpt lat="50.07757" lon="5.2277">
        <ele>307</ele>
        <time>2018-07-29T08:56:47Z</time>
      </trkpt>
      <trkpt lat="50.07754" lon="5.22778">
        <ele>308</ele>
        <time>2018-07-29T08:56:57Z</time>
      </trkpt>
      <trkpt lat="50.07751" lon="5.22788">
        <ele>308</ele>
        <time>2018-07-29T08:57:07Z</time>
      </trkpt>
      <trkpt lat="50.0775" lon="5.22792">
        <ele>309</ele>
        <time>2018-07-29T08:57:17Z</time>
      </trkpt>
      <trkpt lat="50.0775" lon="5.22792">
        <ele>309</ele>
        <time>2018-07-29T08:57:28Z</time>
      </trkpt>
      <trkpt lat="50.0775" lon="5.22795">
        <ele>309</ele>
        <time>2018-07-29T08:57:39Z</time>
      </trkpt>
      <trkpt lat="50.07749" lon="5.22796">
        <ele>309</ele>
        <time>2018-07-29T08:57:50Z</time>
      </trkpt>
      <trkpt lat="50.07748" lon="5.22796">
        <ele>308</ele>
        <time>2018-07-29T08:58:00Z</time>
      </trkpt>
      <trkpt lat="50.07747" lon="5.22795">
        <ele>308</ele>
        <time>2018-07-29T08:58:11Z</time>
      </trkpt>
      <trkpt lat="50.07747" lon="5.22798">
        <ele>309</ele>
        <time>2018-07-29T08:58:21Z</time>
      </trkpt>
      <trkpt lat="50.07744" lon="5.228">
        <ele>309</ele>
        <time>2018-07-29T08:58:31Z</time>
      </trkpt>
      <trkpt lat="50.07741" lon="5.2281">
        <ele>310</ele>
        <time>2018-07-29T08:58:41Z</time>
      </trkpt>
      <trkpt lat="50.07736" lon="5.22822">
        <ele>311</ele>
        <time>2018-07-29T08:58:52Z</time>
      </trkpt>
      <trkpt lat="50.07731" lon="5.22833">
        <ele>312</ele>
        <time>2018-07-29T08:59:02Z</time>
      </trkpt>
      <trkpt lat="50.07726" lon="5.22846">
        <ele>313</ele>
        <time>2018-07-29T08:59:13Z</time>
      </trkpt>
      <trkpt lat="50.0772" lon="5.22854">
        <ele>314</ele>
        <time>2018-07-29T08:59:23Z</time>
      </trkpt>
      <trkpt lat="50.07712" lon="5.22864">
        <ele>315</ele>
        <time>2018-07-29T08:59:34Z</time>
      </trkpt>
      <trkpt lat="50.07705" lon="5.22874">
        <ele>316</ele>
        <time>2018-07-29T08:59:44Z</time>
      </trkpt>
      <trkpt lat="50.07697" lon="5.22885">
        <ele>317</ele>
        <time>2018-07-29T08:59:55Z</time>
      </trkpt>
      <trkpt lat="50.0769" lon="5.22895">
        <ele>318</ele>
        <time>2018-07-29T09:00:05Z</time>
      </trkpt>
      <trkpt lat="50.07683" lon="5.22906">
        <ele>319</ele>
        <time>2018-07-29T09:00:15Z</time>
      </trkpt>
      <trkpt lat="50.07676" lon="5.22918">
        <ele>320</ele>
        <time>2018-07-29T09:00:26Z</time>
      </trkpt>
      <trkpt lat="50.07672" lon="5.22928">
        <ele>321</ele>
        <time>2018-07-29T09:00:36Z</time>
      </trkpt>
      <trkpt lat="50.07666" lon="5.22941">
        <ele>322</ele>
        <time>2018-07-29T09:00:46Z</time>
      </trkpt>
      <trkpt lat="50.07659" lon="5.22948">
        <ele>322</ele>
        <time>2018-07-29T09:00:57Z</time>
      </trkpt>
      <trkpt lat="50.07659" lon="5.22949">
        <ele>321</ele>
        <time>2018-07-29T09:01:07Z</time>
      </trkpt>
      <trkpt lat="50.07658" lon="5.22951">
        <ele>321</ele>
        <time>2018-07-29T09:01:19Z</time>
      </trkpt>
      <trkpt lat="50.07656" lon="5.22956">
        <ele>322</ele>
        <time>2018-07-29T09:01:29Z</time>
      </trkpt>
      <trkpt lat="50.07652" lon="5.22959">
        <ele>323</ele>
        <time>2018-07-29T09:01:40Z</time>
      </trkpt>
      <trkpt lat="50.07641" lon="5.22971">
        <ele>323</ele>
        <time>2018-07-29T09:01:51Z</time>
      </trkpt>
      <trkpt lat="50.07631" lon="5.22979">
        <ele>323</ele>
        <time>2018-07-29T09:02:01Z</time>
      </trkpt>
      <trkpt lat="50.07622" lon="5.22985">
        <ele>324</ele>
        <time>2018-07-29T09:02:11Z</time>
      </trkpt>
      <trkpt lat="50.07611" lon="5.22991">
        <ele>324</ele>
        <time>2018-07-29T09:02:22Z</time>
      </trkpt>
      <trkpt lat="50.07601" lon="5.22996">
        <ele>325</ele>
        <time>2018-07-29T09:02:32Z</time>
      </trkpt>
      <trkpt lat="50.07591" lon="5.22999">
        <ele>326</ele>
        <time>2018-07-29T09:02:42Z</time>
      </trkpt>
      <trkpt lat="50.07579" lon="5.23002">
        <ele>325</ele>
        <time>2018-07-29T09:02:53Z</time>
      </trkpt>
      <trkpt lat="50.07569" lon="5.23004">
        <ele>325</ele>
        <time>2018-07-29T09:03:03Z</time>
      </trkpt>
      <trkpt lat="50.07557" lon="5.23009">
        <ele>325</ele>
        <time>2018-07-29T09:03:14Z</time>
      </trkpt>
      <trkpt lat="50.07548" lon="5.23013">
        <ele>326</ele>
        <time>2018-07-29T09:03:26Z</time>
      </trkpt>
      <trkpt lat="50.07546" lon="5.23014">
        <ele>326</ele>
        <time>2018-07-29T09:03:36Z</time>
      </trkpt>
      <trkpt lat="50.07535" lon="5.23018">
        <ele>326</ele>
        <time>2018-07-29T09:03:46Z</time>
      </trkpt>
      <trkpt lat="50.07523" lon="5.23024">
        <ele>327</ele>
        <time>2018-07-29T09:03:57Z</time>
      </trkpt>
      <trkpt lat="50.07513" lon="5.23028">
        <ele>326</ele>
        <time>2018-07-29T09:04:07Z</time>
      </trkpt>
      <trkpt lat="50.07502" lon="5.23033">
        <ele>327</ele>
        <time>2018-07-29T09:04:17Z</time>
      </trkpt>
      <trkpt lat="50.07493" lon="5.23036">
        <ele>327</ele>
        <time>2018-07-29T09:04:27Z</time>
      </trkpt>
      <trkpt lat="50.0749" lon="5.23036">
        <ele>327</ele>
        <time>2018-07-29T09:04:38Z</time>
      </trkpt>
      <trkpt lat="50.07484" lon="5.23038">
        <ele>327</ele>
        <time>2018-07-29T09:04:48Z</time>
      </trkpt>
      <trkpt lat="50.07478" lon="5.23042">
        <ele>328</ele>
        <time>2018-07-29T09:04:58Z</time>
      </trkpt>
      <trkpt lat="50.07466" lon="5.23048">
        <ele>329</ele>
        <time>2018-07-29T09:05:09Z</time>
      </trkpt>
      <trkpt lat="50.07456" lon="5.23054">
        <ele>328</ele>
        <time>2018-07-29T09:05:19Z</time>
      </trkpt>
      <trkpt lat="50.07446" lon="5.23058">
        <ele>329</ele>
        <time>2018-07-29T09:05:29Z</time>
      </trkpt>
      <trkpt lat="50.07435" lon="5.2306">
        <ele>329</ele>
        <time>2018-07-29T09:05:40Z</time>
      </trkpt>
      <trkpt lat="50.07426" lon="5.2306">
        <ele>329</ele>
        <time>2018-07-29T09:05:50Z</time>
      </trkpt>
      <trkpt lat="50.07415" lon="5.23062">
        <ele>331</ele>
        <time>2018-07-29T09:06:00Z</time>
      </trkpt>
      <trkpt lat="50.07403" lon="5.23063">
        <ele>332</ele>
        <time>2018-07-29T09:06:11Z</time>
      </trkpt>
      <trkpt lat="50.07392" lon="5.23063">
        <ele>333</ele>
        <time>2018-07-29T09:06:21Z</time>
      </trkpt>
      <trkpt lat="50.07382" lon="5.23058">
        <ele>334</ele>
        <time>2018-07-29T09:06:31Z</time>
      </trkpt>
      <trkpt lat="50.07373" lon="5.23052">
        <ele>333</ele>
        <time>2018-07-29T09:06:42Z</time>
      </trkpt>
      <trkpt lat="50.07365" lon="5.23046">
        <ele>334</ele>
        <time>2018-07-29T09:06:52Z</time>
      </trkpt>
      <trkpt lat="50.07362" lon="5.23039">
        <ele>336</ele>
        <time>2018-07-29T09:07:02Z</time>
      </trkpt>
      <trkpt lat="50.07358" lon="5.23037">
        <ele>336</ele>
        <time>2018-07-29T09:07:13Z</time>
      </trkpt>
      <trkpt lat="50.07348" lon="5.23034">
        <ele>337</ele>
        <time>2018-07-29T09:07:24Z</time>
      </trkpt>
      <trkpt lat="50.07345" lon="5.23035">
        <ele>337</ele>
        <time>2018-07-29T09:07:34Z</time>
      </trkpt>
      <trkpt lat="50.07344" lon="5.23032">
        <ele>338</ele>
        <time>2018-07-29T09:07:44Z</time>
      </trkpt>
      <trkpt lat="50.07344" lon="5.2303">
        <ele>337</ele>
        <time>2018-07-29T09:07:55Z</time>
      </trkpt>
      <trkpt lat="50.07347" lon="5.2303">
        <ele>338</ele>
        <time>2018-07-29T09:08:05Z</time>
      </trkpt>
      <trkpt lat="50.07346" lon="5.23026">
        <ele>338</ele>
        <time>2018-07-29T09:08:16Z</time>
      </trkpt>
      <trkpt lat="50.07336" lon="5.23019">
        <ele>339</ele>
        <time>2018-07-29T09:08:26Z</time>
      </trkpt>
      <trkpt lat="50.07327" lon="5.23013">
        <ele>340</ele>
        <time>2018-07-29T09:08:36Z</time>
      </trkpt>
      <trkpt lat="50.07318" lon="5.23009">
        <ele>341</ele>
        <time>2018-07-29T09:08:47Z</time>
      </trkpt>
      <trkpt lat="50.07317" lon="5.23009">
        <ele>340</ele>
        <time>2018-07-29T09:09:01Z</time>
      </trkpt>
      <trkpt lat="50.07308" lon="5.23006">
        <ele>340</ele>
        <time>2018-07-29T09:09:11Z</time>
      </trkpt>
      <trkpt lat="50.07289" lon="5.23">
        <ele>345</ele>
        <time>2018-07-29T09:09:22Z</time>
      </trkpt>
      <trkpt lat="50.07279" lon="5.22995">
        <ele>345</ele>
        <time>2018-07-29T09:09:32Z</time>
      </trkpt>
      <trkpt lat="50.07271" lon="5.2299">
        <ele>347</ele>
        <time>2018-07-29T09:09:43Z</time>
      </trkpt>
      <trkpt lat="50.07263" lon="5.22984">
        <ele>348</ele>
        <time>2018-07-29T09:09:53Z</time>
      </trkpt>
      <trkpt lat="50.07255" lon="5.22977">
        <ele>349</ele>
        <time>2018-07-29T09:10:04Z</time>
      </trkpt>
      <trkpt lat="50.07248" lon="5.22974">
        <ele>349</ele>
        <time>2018-07-29T09:10:14Z</time>
      </trkpt>
      <trkpt lat="50.07243" lon="5.22971">
        <ele>351</ele>
        <time>2018-07-29T09:10:24Z</time>
      </trkpt>
      <trkpt lat="50.07234" lon="5.22966">
        <ele>351</ele>
        <time>2018-07-29T09:10:35Z</time>
      </trkpt>
      <trkpt lat="50.07227" lon="5.22961">
        <ele>352</ele>
        <time>2018-07-29T09:10:45Z</time>
      </trkpt>
      <trkpt lat="50.07224" lon="5.22961">
        <ele>352</ele>
        <time>2018-07-29T09:10:56Z</time>
      </trkpt>
      <trkpt lat="50.0722" lon="5.22962">
        <ele>353</ele>
        <time>2018-07-29T09:11:06Z</time>
      </trkpt>
      <trkpt lat="50.07211" lon="5.22959">
        <ele>353</ele>
        <time>2018-07-29T09:11:16Z</time>
      </trkpt>
      <trkpt lat="50.07202" lon="5.22957">
        <ele>354</ele>
        <time>2018-07-29T09:11:27Z</time>
      </trkpt>
      <trkpt lat="50.07194" lon="5.22957">
        <ele>355</ele>
        <time>2018-07-29T09:11:37Z</time>
      </trkpt>
      <trkpt lat="50.07185" lon="5.22955">
        <ele>356</ele>
        <time>2018-07-29T09:11:48Z</time>
      </trkpt>
      <trkpt lat="50.07177" lon="5.22953">
        <ele>357</ele>
        <time>2018-07-29T09:11:58Z</time>
      </trkpt>
      <trkpt lat="50.07171" lon="5.22952">
        <ele>358</ele>
        <time>2018-07-29T09:12:08Z</time>
      </trkpt>
      <trkpt lat="50.07161" lon="5.22951">
        <ele>359</ele>
        <time>2018-07-29T09:12:18Z</time>
      </trkpt>
      <trkpt lat="50.07152" lon="5.22949">
        <ele>359</ele>
        <time>2018-07-29T09:12:28Z</time>
      </trkpt>
      <trkpt lat="50.0714" lon="5.22948">
        <ele>360</ele>
        <time>2018-07-29T09:12:39Z</time>
      </trkpt>
      <trkpt lat="50.07129" lon="5.22947">
        <ele>361</ele>
        <time>2018-07-29T09:12:50Z</time>
      </trkpt>
      <trkpt lat="50.0712" lon="5.2295">
        <ele>360</ele>
        <time>2018-07-29T09:13:00Z</time>
      </trkpt>
      <trkpt lat="50.0711" lon="5.22948">
        <ele>362</ele>
        <time>2018-07-29T09:13:10Z</time>
      </trkpt>
      <trkpt lat="50.07098" lon="5.22949">
        <ele>363</ele>
        <time>2018-07-29T09:13:21Z</time>
      </trkpt>
      <trkpt lat="50.07086" lon="5.22945">
        <ele>363</ele>
        <time>2018-07-29T09:13:32Z</time>
      </trkpt>
      <trkpt lat="50.07072" lon="5.2294">
        <ele>362</ele>
        <time>2018-07-29T09:13:42Z</time>
      </trkpt>
      <trkpt lat="50.07066" lon="5.2293">
        <ele>363</ele>
        <time>2018-07-29T09:13:52Z</time>
      </trkpt>
      <trkpt lat="50.07064" lon="5.22922">
        <ele>364</ele>
        <time>2018-07-29T09:14:03Z</time>
      </trkpt>
      <trkpt lat="50.07063" lon="5.22908">
        <ele>364</ele>
        <time>2018-07-29T09:14:14Z</time>
      </trkpt>
      <trkpt lat="50.07062" lon="5.22896">
        <ele>364</ele>
        <time>2018-07-29T09:14:24Z</time>
      </trkpt>
      <trkpt lat="50.07061" lon="5.22884">
        <ele>365</ele>
        <time>2018-07-29T09:14:35Z</time>
      </trkpt>
      <trkpt lat="50.07059" lon="5.22868">
        <ele>364</ele>
        <time>2018-07-29T09:14:45Z</time>
      </trkpt>
      <trkpt lat="50.07056" lon="5.22854">
        <ele>365</ele>
        <time>2018-07-29T09:14:55Z</time>
      </trkpt>
      <trkpt lat="50.07053" lon="5.22837">
        <ele>365</ele>
        <time>2018-07-29T09:15:06Z</time>
      </trkpt>
      <trkpt lat="50.07048" lon="5.22823">
        <ele>365</ele>
        <time>2018-07-29T09:15:16Z</time>
      </trkpt>
      <trkpt lat="50.0704" lon="5.22811">
        <ele>366</ele>
        <time>2018-07-29T09:15:27Z</time>
      </trkpt>
      <trkpt lat="50.07037" lon="5.22798">
        <ele>365</ele>
        <time>2018-07-29T09:15:37Z</time>
      </trkpt>
      <trkpt lat="50.07035" lon="5.22785">
        <ele>365</ele>
        <time>2018-07-29T09:15:48Z</time>
      </trkpt>
      <trkpt lat="50.0703" lon="5.22772">
        <ele>365</ele>
        <time>2018-07-29T09:15:59Z</time>
      </trkpt>
      <trkpt lat="50.07025" lon="5.22755">
        <ele>366</ele>
        <time>2018-07-29T09:16:10Z</time>
      </trkpt>
      <trkpt lat="50.07021" lon="5.22741">
        <ele>366</ele>
        <time>2018-07-29T09:16:21Z</time>
      </trkpt>
      <trkpt lat="50.07017" lon="5.22726">
        <ele>366</ele>
        <time>2018-07-29T09:16:31Z</time>
      </trkpt>
      <trkpt lat="50.07011" lon="5.22712">
        <ele>367</ele>
        <time>2018-07-29T09:16:41Z</time>
      </trkpt>
      <trkpt lat="50.07005" lon="5.22698">
        <ele>366</ele>
        <time>2018-07-29T09:16:52Z</time>
      </trkpt>
      <trkpt lat="50.07" lon="5.22686">
        <ele>366</ele>
        <time>2018-07-29T09:17:02Z</time>
      </trkpt>
      <trkpt lat="50.06997" lon="5.22676">
        <ele>366</ele>
        <time>2018-07-29T09:17:13Z</time>
      </trkpt>
      <trkpt lat="50.06995" lon="5.22663">
        <ele>366</ele>
        <time>2018-07-29T09:17:23Z</time>
      </trkpt>
      <trkpt lat="50.06992" lon="5.2265">
        <ele>367</ele>
        <time>2018-07-29T09:17:33Z</time>
      </trkpt>
      <trkpt lat="50.06987" lon="5.22635">
        <ele>367</ele>
        <time>2018-07-29T09:17:44Z</time>
      </trkpt>
      <trkpt lat="50.06982" lon="5.22617">
        <ele>368</ele>
        <time>2018-07-29T09:17:55Z</time>
      </trkpt>
      <trkpt lat="50.06977" lon="5.22601">
        <ele>367</ele>
        <time>2018-07-29T09:18:06Z</time>
      </trkpt>
      <trkpt lat="50.06971" lon="5.22585">
        <ele>367</ele>
        <time>2018-07-29T09:18:17Z</time>
      </trkpt>
      <trkpt lat="50.06969" lon="5.2257">
        <ele>367</ele>
        <time>2018-07-29T09:18:28Z</time>
      </trkpt>
      <trkpt lat="50.06964" lon="5.22553">
        <ele>368</ele>
        <time>2018-07-29T09:18:39Z</time>
      </trkpt>
      <trkpt lat="50.06958" lon="5.22539">
        <ele>368</ele>
        <time>2018-07-29T09:18:50Z</time>
      </trkpt>
      <trkpt lat="50.06955" lon="5.22523">
        <ele>369</ele>
        <time>2018-07-29T09:19:00Z</time>
      </trkpt>
      <trkpt lat="50.06951" lon="5.22509">
        <ele>368</ele>
        <time>2018-07-29T09:19:10Z</time>
      </trkpt>
      <trkpt lat="50.06948" lon="5.22496">
        <ele>369</ele>
        <time>2018-07-29T09:19:20Z</time>
      </trkpt>
      <trkpt lat="50.06944" lon="5.22481">
        <ele>368</ele>
        <time>2018-07-29T09:19:31Z</time>
      </trkpt>
      <trkpt lat="50.06939" lon="5.22472">
        <ele>367</ele>
        <time>2018-07-29T09:19:42Z</time>
      </trkpt>
      <trkpt lat="50.06936" lon="5.22457">
        <ele>368</ele>
        <time>2018-07-29T09:19:53Z</time>
      </trkpt>
      <trkpt lat="50.06933" lon="5.22441">
        <ele>368</ele>
        <time>2018-07-29T09:20:03Z</time>
      </trkpt>
      <trkpt lat="50.06932" lon="5.22426">
        <ele>368</ele>
        <time>2018-07-29T09:20:13Z</time>
      </trkpt>
      <trkpt lat="50.06929" lon="5.22408">
        <ele>368</ele>
        <time>2018-07-29T09:20:24Z</time>
      </trkpt>
      <trkpt lat="50.06928" lon="5.22391">
        <ele>367</ele>
        <time>2018-07-29T09:20:35Z</time>
      </trkpt>
      <trkpt lat="50.06928" lon="5.22378">
        <ele>368</ele>
        <time>2018-07-29T09:20:45Z</time>
      </trkpt>
      <trkpt lat="50.06926" lon="5.22372">
        <ele>367</ele>
        <time>2018-07-29T09:20:56Z</time>
      </trkpt>
      <trkpt lat="50.06925" lon="5.22363">
        <ele>366</ele>
        <time>2018-07-29T09:21:07Z</time>
      </trkpt>
      <trkpt lat="50.06923" lon="5.22349">
        <ele>366</ele>
        <time>2018-07-29T09:21:17Z</time>
      </trkpt>
      <trkpt lat="50.06922" lon="5.22332">
        <ele>367</ele>
        <time>2018-07-29T09:21:27Z</time>
      </trkpt>
      <trkpt lat="50.06921" lon="5.22313">
        <ele>366</ele>
        <time>2018-07-29T09:21:38Z</time>
      </trkpt>
      <trkpt lat="50.06919" lon="5.22297">
        <ele>366</ele>
        <time>2018-07-29T09:21:48Z</time>
      </trkpt>
      <trkpt lat="50.06917" lon="5.22281">
        <ele>366</ele>
        <time>2018-07-29T09:21:59Z</time>
      </trkpt>
      <trkpt lat="50.06916" lon="5.22264">
        <ele>366</ele>
        <time>2018-07-29T09:22:10Z</time>
      </trkpt>
      <trkpt lat="50.06914" lon="5.22249">
        <ele>365</ele>
        <time>2018-07-29T09:22:20Z</time>
      </trkpt>
      <trkpt lat="50.06912" lon="5.22234">
        <ele>364</ele>
        <time>2018-07-29T09:22:30Z</time>
      </trkpt>
      <trkpt lat="50.0691" lon="5.22219">
        <ele>364</ele>
        <time>2018-07-29T09:22:41Z</time>
      </trkpt>
      <trkpt lat="50.06907" lon="5.22204">
        <ele>363</ele>
        <time>2018-07-29T09:22:52Z</time>
      </trkpt>
      <trkpt lat="50.06905" lon="5.22191">
        <ele>362</ele>
        <time>2018-07-29T09:23:02Z</time>
      </trkpt>
      <trkpt lat="50.06903" lon="5.22175">
        <ele>361</ele>
        <time>2018-07-29T09:23:13Z</time>
      </trkpt>
      <trkpt lat="50.06901" lon="5.2216">
        <ele>362</ele>
        <time>2018-07-29T09:23:24Z</time>
      </trkpt>
      <trkpt lat="50.06899" lon="5.22145">
        <ele>362</ele>
        <time>2018-07-29T09:23:34Z</time>
      </trkpt>
      <trkpt lat="50.06898" lon="5.22126">
        <ele>362</ele>
        <time>2018-07-29T09:23:45Z</time>
      </trkpt>
      <trkpt lat="50.06895" lon="5.22114">
        <ele>361</ele>
        <time>2018-07-29T09:23:55Z</time>
      </trkpt>
      <trkpt lat="50.06894" lon="5.22099">
        <ele>361</ele>
        <time>2018-07-29T09:24:06Z</time>
      </trkpt>
      <trkpt lat="50.06891" lon="5.22086">
        <ele>360</ele>
        <time>2018-07-29T09:24:18Z</time>
      </trkpt>
      <trkpt lat="50.06888" lon="5.22072">
        <ele>359</ele>
        <time>2018-07-29T09:24:28Z</time>
      </trkpt>
      <trkpt lat="50.06884" lon="5.22061">
        <ele>358</ele>
        <time>2018-07-29T09:24:38Z</time>
      </trkpt>
      <trkpt lat="50.06882" lon="5.22055">
        <ele>359</ele>
        <time>2018-07-29T09:24:49Z</time>
      </trkpt>
      <trkpt lat="50.06875" lon="5.22038">
        <ele>358</ele>
        <time>2018-07-29T09:24:59Z</time>
      </trkpt>
      <trkpt lat="50.06869" lon="5.22023">
        <ele>358</ele>
        <time>2018-07-29T09:25:09Z</time>
      </trkpt>
      <trkpt lat="50.06862" lon="5.22009">
        <ele>358</ele>
        <time>2018-07-29T09:25:20Z</time>
      </trkpt>
      <trkpt lat="50.06859" lon="5.21997">
        <ele>358</ele>
        <time>2018-07-29T09:25:30Z</time>
      </trkpt>
      <trkpt lat="50.06855" lon="5.21985">
        <ele>358</ele>
        <time>2018-07-29T09:25:41Z</time>
      </trkpt>
      <trkpt lat="50.06852" lon="5.21974">
        <ele>358</ele>
        <time>2018-07-29T09:25:51Z</time>
      </trkpt>
      <trkpt lat="50.06849" lon="5.21959">
        <ele>358</ele>
        <time>2018-07-29T09:26:02Z</time>
      </trkpt>
      <trkpt lat="50.06843" lon="5.21949">
        <ele>357</ele>
        <time>2018-07-29T09:26:12Z</time>
      </trkpt>
      <trkpt lat="50.06834" lon="5.21937">
        <ele>356</ele>
        <time>2018-07-29T09:26:23Z</time>
      </trkpt>
      <trkpt lat="50.06824" lon="5.21925">
        <ele>356</ele>
        <time>2018-07-29T09:26:34Z</time>
      </trkpt>
      <trkpt lat="50.06815" lon="5.21912">
        <ele>355</ele>
        <time>2018-07-29T09:26:45Z</time>
      </trkpt>
      <trkpt lat="50.06806" lon="5.21898">
        <ele>355</ele>
        <time>2018-07-29T09:26:55Z</time>
      </trkpt>
      <trkpt lat="50.06795" lon="5.21883">
        <ele>354</ele>
        <time>2018-07-29T09:27:06Z</time>
      </trkpt>
      <trkpt lat="50.06785" lon="5.21874">
        <ele>353</ele>
        <time>2018-07-29T09:27:16Z</time>
      </trkpt>
      <trkpt lat="50.06775" lon="5.21861">
        <ele>353</ele>
        <time>2018-07-29T09:27:27Z</time>
      </trkpt>
      <trkpt lat="50.06768" lon="5.21851">
        <ele>353</ele>
        <time>2018-07-29T09:27:37Z</time>
      </trkpt>
      <trkpt lat="50.06759" lon="5.21841">
        <ele>352</ele>
        <time>2018-07-29T09:27:47Z</time>
      </trkpt>
      <trkpt lat="50.06753" lon="5.21834">
        <ele>352</ele>
        <time>2018-07-29T09:27:58Z</time>
      </trkpt>
      <trkpt lat="50.06745" lon="5.21822">
        <ele>352</ele>
        <time>2018-07-29T09:28:09Z</time>
      </trkpt>
      <trkpt lat="50.06738" lon="5.21809">
        <ele>351</ele>
        <time>2018-07-29T09:28:19Z</time>
      </trkpt>
      <trkpt lat="50.06731" lon="5.21799">
        <ele>352</ele>
        <time>2018-07-29T09:28:29Z</time>
      </trkpt>
      <trkpt lat="50.06722" lon="5.2179">
        <ele>351</ele>
        <time>2018-07-29T09:28:40Z</time>
      </trkpt>
      <trkpt lat="50.06719" lon="5.21779">
        <ele>351</ele>
        <time>2018-07-29T09:28:50Z</time>
      </trkpt>
      <trkpt lat="50.06713" lon="5.21765">
        <ele>350</ele>
        <time>2018-07-29T09:29:00Z</time>
      </trkpt>
      <trkpt lat="50.06706" lon="5.21749">
        <ele>350</ele>
        <time>2018-07-29T09:29:11Z</time>
      </trkpt>
      <trkpt lat="50.06702" lon="5.21734">
        <ele>349</ele>
        <time>2018-07-29T09:29:21Z</time>
      </trkpt>
      <trkpt lat="50.06699" lon="5.21718">
        <ele>351</ele>
        <time>2018-07-29T09:29:32Z</time>
      </trkpt>
      <trkpt lat="50.06694" lon="5.21702">
        <ele>351</ele>
        <time>2018-07-29T09:29:43Z</time>
      </trkpt>
      <trkpt lat="50.06689" lon="5.21687">
        <ele>350</ele>
        <time>2018-07-29T09:29:53Z</time>
      </trkpt>
      <trkpt lat="50.06686" lon="5.2167">
        <ele>351</ele>
        <time>2018-07-29T09:30:04Z</time>
      </trkpt>
      <trkpt lat="50.06686" lon="5.21659">
        <ele>351</ele>
        <time>2018-07-29T09:30:15Z</time>
      </trkpt>
      <trkpt lat="50.06681" lon="5.21645">
        <ele>351</ele>
        <time>2018-07-29T09:30:25Z</time>
      </trkpt>
      <trkpt lat="50.06676" lon="5.2163">
        <ele>352</ele>
        <time>2018-07-29T09:30:36Z</time>
      </trkpt>
      <trkpt lat="50.06673" lon="5.21614">
        <ele>352</ele>
        <time>2018-07-29T09:30:46Z</time>
      </trkpt>
      <trkpt lat="50.06669" lon="5.21597">
        <ele>351</ele>
        <time>2018-07-29T09:30:56Z</time>
      </trkpt>
      <trkpt lat="50.06667" lon="5.21584">
        <ele>351</ele>
        <time>2018-07-29T09:31:06Z</time>
      </trkpt>
      <trkpt lat="50.06664" lon="5.21575">
        <ele>351</ele>
        <time>2018-07-29T09:31:16Z</time>
      </trkpt>
      <trkpt lat="50.06659" lon="5.21561">
        <ele>351</ele>
        <time>2018-07-29T09:31:27Z</time>
      </trkpt>
      <trkpt lat="50.06659" lon="5.21544">
        <ele>351</ele>
        <time>2018-07-29T09:31:38Z</time>
      </trkpt>
      <trkpt lat="50.06663" lon="5.21531">
        <ele>352</ele>
        <time>2018-07-29T09:31:49Z</time>
      </trkpt>
      <trkpt lat="50.06672" lon="5.21528">
        <ele>351</ele>
        <time>2018-07-29T09:32:00Z</time>
      </trkpt>
      <trkpt lat="50.06677" lon="5.21529">
        <ele>352</ele>
        <time>2018-07-29T09:32:11Z</time>
      </trkpt>
      <trkpt lat="50.06684" lon="5.21528">
        <ele>353</ele>
        <time>2018-07-29T09:32:22Z</time>
      </trkpt>
      <trkpt lat="50.06691" lon="5.2153">
        <ele>353</ele>
        <time>2018-07-29T09:32:33Z</time>
      </trkpt>
      <trkpt lat="50.06698" lon="5.21528">
        <ele>353</ele>
        <time>2018-07-29T09:32:44Z</time>
      </trkpt>
      <trkpt lat="50.06708" lon="5.21526">
        <ele>352</ele>
        <time>2018-07-29T09:32:54Z</time>
      </trkpt>
      <trkpt lat="50.06719" lon="5.21521">
        <ele>352</ele>
        <time>2018-07-29T09:33:05Z</time>
      </trkpt>
      <trkpt lat="50.06728" lon="5.2152">
        <ele>351</ele>
        <time>2018-07-29T09:33:16Z</time>
      </trkpt>
      <trkpt lat="50.06737" lon="5.21518">
        <ele>351</ele>
        <time>2018-07-29T09:33:26Z</time>
      </trkpt>
      <trkpt lat="50.06746" lon="5.21512">
        <ele>351</ele>
        <time>2018-07-29T09:33:37Z</time>
      </trkpt>
      <trkpt lat="50.06756" lon="5.21508">
        <ele>349</ele>
        <time>2018-07-29T09:33:48Z</time>
      </trkpt>
      <trkpt lat="50.06768" lon="5.21503">
        <ele>349</ele>
        <time>2018-07-29T09:33:59Z</time>
      </trkpt>
      <trkpt lat="50.06779" lon="5.21501">
        <ele>348</ele>
        <time>2018-07-29T09:34:09Z</time>
      </trkpt>
      <trkpt lat="50.06791" lon="5.215">
        <ele>347</ele>
        <time>2018-07-29T09:34:19Z</time>
      </trkpt>
      <trkpt lat="50.06804" lon="5.21495">
        <ele>346</ele>
        <time>2018-07-29T09:34:30Z</time>
      </trkpt>
      <trkpt lat="50.06816" lon="5.21489">
        <ele>345</ele>
        <time>2018-07-29T09:34:40Z</time>
      </trkpt>
      <trkpt lat="50.06827" lon="5.21483">
        <ele>344</ele>
        <time>2018-07-29T09:34:51Z</time>
      </trkpt>
      <trkpt lat="50.06842" lon="5.2148">
        <ele>344</ele>
        <time>2018-07-29T09:35:02Z</time>
      </trkpt>
      <trkpt lat="50.06853" lon="5.21475">
        <ele>343</ele>
        <time>2018-07-29T09:35:12Z</time>
      </trkpt>
      <trkpt lat="50.06863" lon="5.21467">
        <ele>343</ele>
        <time>2018-07-29T09:35:23Z</time>
      </trkpt>
      <trkpt lat="50.06873" lon="5.21461">
        <ele>341</ele>
        <time>2018-07-29T09:35:33Z</time>
      </trkpt>
      <trkpt lat="50.06883" lon="5.21454">
        <ele>340</ele>
        <time>2018-07-29T09:35:44Z</time>
      </trkpt>
      <trkpt lat="50.0689" lon="5.2145">
        <ele>339</ele>
        <time>2018-07-29T09:35:54Z</time>
      </trkpt>
      <trkpt lat="50.069" lon="5.21446">
        <ele>339</ele>
        <time>2018-07-29T09:36:05Z</time>
      </trkpt>
      <trkpt lat="50.06908" lon="5.21442">
        <ele>337</ele>
        <time>2018-07-29T09:36:15Z</time>
      </trkpt>
      <trkpt lat="50.06918" lon="5.21437">
        <ele>337</ele>
        <time>2018-07-29T09:36:26Z</time>
      </trkpt>
      <trkpt lat="50.06928" lon="5.21435">
        <ele>336</ele>
        <time>2018-07-29T09:36:36Z</time>
      </trkpt>
      <trkpt lat="50.06937" lon="5.21431">
        <ele>335</ele>
        <time>2018-07-29T09:36:47Z</time>
      </trkpt>
      <trkpt lat="50.06947" lon="5.21427">
        <ele>334</ele>
        <time>2018-07-29T09:36:58Z</time>
      </trkpt>
      <trkpt lat="50.06959" lon="5.21425">
        <ele>333</ele>
        <time>2018-07-29T09:37:09Z</time>
      </trkpt>
      <trkpt lat="50.06969" lon="5.21425">
        <ele>332</ele>
        <time>2018-07-29T09:37:19Z</time>
      </trkpt>
      <trkpt lat="50.0698" lon="5.21422">
        <ele>331</ele>
        <time>2018-07-29T09:37:29Z</time>
      </trkpt>
      <trkpt lat="50.06992" lon="5.21419">
        <ele>329</ele>
        <time>2018-07-29T09:37:39Z</time>
      </trkpt>
      <trkpt lat="50.07002" lon="5.21416">
        <ele>329</ele>
        <time>2018-07-29T09:37:49Z</time>
      </trkpt>
      <trkpt lat="50.07014" lon="5.21413">
        <ele>328</ele>
        <time>2018-07-29T09:38:00Z</time>
      </trkpt>
      <trkpt lat="50.07026" lon="5.21407">
        <ele>328</ele>
        <time>2018-07-29T09:38:10Z</time>
      </trkpt>
      <trkpt lat="50.07037" lon="5.21402">
        <ele>327</ele>
        <time>2018-07-29T09:38:21Z</time>
      </trkpt>
      <trkpt lat="50.07047" lon="5.21396">
        <ele>326</ele>
        <time>2018-07-29T09:38:31Z</time>
      </trkpt>
      <trkpt lat="50.07059" lon="5.21391">
        <ele>326</ele>
        <time>2018-07-29T09:38:41Z</time>
      </trkpt>
      <trkpt lat="50.07072" lon="5.21386">
        <ele>327</ele>
        <time>2018-07-29T09:38:52Z</time>
      </trkpt>
      <trkpt lat="50.07085" lon="5.2138">
        <ele>326</ele>
        <time>2018-07-29T09:39:03Z</time>
      </trkpt>
      <trkpt lat="50.07097" lon="5.21372">
        <ele>324</ele>
        <time>2018-07-29T09:39:13Z</time>
      </trkpt>
      <trkpt lat="50.07106" lon="5.21367">
        <ele>324</ele>
        <time>2018-07-29T09:39:23Z</time>
      </trkpt>
      <trkpt lat="50.07116" lon="5.21361">
        <ele>323</ele>
        <time>2018-07-29T09:39:33Z</time>
      </trkpt>
      <trkpt lat="50.07131" lon="5.21353">
        <ele>322</ele>
        <time>2018-07-29T09:39:44Z</time>
      </trkpt>
      <trkpt lat="50.07143" lon="5.21344">
        <ele>322</ele>
        <time>2018-07-29T09:39:55Z</time>
      </trkpt>
      <trkpt lat="50.07156" lon="5.21337">
        <ele>319</ele>
        <time>2018-07-29T09:40:06Z</time>
      </trkpt>
      <trkpt lat="50.07168" lon="5.21329">
        <ele>317</ele>
        <time>2018-07-29T09:40:17Z</time>
      </trkpt>
      <trkpt lat="50.07167" lon="5.21322">
        <ele>318</ele>
        <time>2018-07-29T09:40:28Z</time>
      </trkpt>
      <trkpt lat="50.07169" lon="5.21319">
        <ele>318</ele>
        <time>2018-07-29T09:40:39Z</time>
      </trkpt>
      <trkpt lat="50.07168" lon="5.21317">
        <ele>319</ele>
        <time>2018-07-29T09:40:49Z</time>
      </trkpt>
      <trkpt lat="50.0717" lon="5.21316">
        <ele>318</ele>
        <time>2018-07-29T09:40:59Z</time>
      </trkpt>
      <trkpt lat="50.07172" lon="5.21315">
        <ele>318</ele>
        <time>2018-07-29T09:41:11Z</time>
      </trkpt>
      <trkpt lat="50.07172" lon="5.21314">
        <ele>318</ele>
        <time>2018-07-29T09:41:23Z</time>
      </trkpt>
      <trkpt lat="50.07174" lon="5.21314">
        <ele>318</ele>
        <time>2018-07-29T09:41:33Z</time>
      </trkpt>
      <trkpt lat="50.07175" lon="5.21315">
        <ele>318</ele>
        <time>2018-07-29T09:41:45Z</time>
      </trkpt>
      <trkpt lat="50.07175" lon="5.21315">
        <ele>318</ele>
        <time>2018-07-29T09:41:56Z</time>
      </trkpt>
      <trkpt lat="50.07174" lon="5.21315">
        <ele>318</ele>
        <time>2018-07-29T09:42:06Z</time>
      </trkpt>
      <trkpt lat="50.07175" lon="5.21315">
        <ele>318</ele>
        <time>2018-07-29T09:42:18Z</time>
      </trkpt>
      <trkpt lat="50.07178" lon="5.21315">
        <ele>318</ele>
        <time>2018-07-29T09:42:29Z</time>
      </trkpt>
      <trkpt lat="50.07181" lon="5.21316">
        <ele>319</ele>
        <time>2018-07-29T09:42:40Z</time>
      </trkpt>
      <trkpt lat="50.07185" lon="5.21318">
        <ele>318</ele>
        <time>2018-07-29T09:42:50Z</time>
      </trkpt>
      <trkpt lat="50.07187" lon="5.21319">
        <ele>319</ele>
        <time>2018-07-29T09:43:00Z</time>
      </trkpt>
      <trkpt lat="50.07187" lon="5.21318">
        <ele>318</ele>
        <time>2018-07-29T09:43:12Z</time>
      </trkpt>
      <trkpt lat="50.07189" lon="5.21317">
        <ele>318</ele>
        <time>2018-07-29T09:43:22Z</time>
      </trkpt>
      <trkpt lat="50.0719" lon="5.21316">
        <ele>319</ele>
        <time>2018-07-29T09:43:35Z</time>
      </trkpt>
      <trkpt lat="50.07187" lon="5.21316">
        <ele>318</ele>
        <time>2018-07-29T09:43:45Z</time>
      </trkpt>
      <trkpt lat="50.07185" lon="5.21316">
        <ele>318</ele>
        <time>2018-07-29T09:43:56Z</time>
      </trkpt>
      <trkpt lat="50.07185" lon="5.21315">
        <ele>318</ele>
        <time>2018-07-29T09:44:07Z</time>
      </trkpt>
      <trkpt lat="50.07185" lon="5.21315">
        <ele>319</ele>
        <time>2018-07-29T09:44:17Z</time>
      </trkpt>
      <trkpt lat="50.0718" lon="5.21314">
        <ele>318</ele>
        <time>2018-07-29T09:44:27Z</time>
      </trkpt>
      <trkpt lat="50.07177" lon="5.21314">
        <ele>318</ele>
        <time>2018-07-29T09:44:37Z</time>
      </trkpt>
      <trkpt lat="50.07175" lon="5.21313">
        <ele>318</ele>
        <time>2018-07-29T09:44:48Z</time>
      </trkpt>
      <trkpt lat="50.07178" lon="5.21314">
        <ele>318</ele>
        <time>2018-07-29T09:44:58Z</time>
      </trkpt>
      <trkpt lat="50.07177" lon="5.21314">
        <ele>318</ele>
        <time>2018-07-29T09:45:09Z</time>
      </trkpt>
      <trkpt lat="50.07177" lon="5.21314">
        <ele>318</ele>
        <time>2018-07-29T09:45:19Z</time>
      </trkpt>
      <trkpt lat="50.07176" lon="5.21313">
        <ele>319</ele>
        <time>2018-07-29T09:45:29Z</time>
      </trkpt>
      <trkpt lat="50.07174" lon="5.21313">
        <ele>318</ele>
        <time>2018-07-29T09:45:40Z</time>
      </trkpt>
      <trkpt lat="50.07174" lon="5.21313">
        <ele>318</ele>
        <time>2018-07-29T09:45:50Z</time>
      </trkpt>
      <trkpt lat="50.07172" lon="5.21312">
        <ele>318</ele>
        <time>2018-07-29T09:46:00Z</time>
      </trkpt>
      <trkpt lat="50.07171" lon="5.21312">
        <ele>318</ele>
        <time>2018-07-29T09:46:12Z</time>
      </trkpt>
      <trkpt lat="50.07169" lon="5.21312">
        <ele>319</ele>
        <time>2018-07-29T09:46:23Z</time>
      </trkpt>
      <trkpt lat="50.07171" lon="5.21312">
        <ele>319</ele>
        <time>2018-07-29T09:46:34Z</time>
      </trkpt>
      <trkpt lat="50.07172" lon="5.21312">
        <ele>319</ele>
        <time>2018-07-29T09:46:44Z</time>
      </trkpt>
      <trkpt lat="50.07174" lon="5.21312">
        <ele>319</ele>
        <time>2018-07-29T09:46:54Z</time>
      </trkpt>
      <trkpt lat="50.07173" lon="5.21312">
        <ele>318</ele>
        <time>2018-07-29T09:47:05Z</time>
      </trkpt>
      <trkpt lat="50.07173" lon="5.21312">
        <ele>319</ele>
        <time>2018-07-29T09:47:15Z</time>
      </trkpt>
      <trkpt lat="50.07176" lon="5.21313">
        <ele>319</ele>
        <time>2018-07-29T09:47:26Z</time>
      </trkpt>
      <trkpt lat="50.0718" lon="5.21314">
        <ele>318</ele>
        <time>2018-07-29T09:47:36Z</time>
      </trkpt>
      <trkpt lat="50.07181" lon="5.21315">
        <ele>319</ele>
        <time>2018-07-29T09:47:47Z</time>
      </trkpt>
      <trkpt lat="50.07184" lon="5.21314">
        <ele>318</ele>
        <time>2018-07-29T09:47:58Z</time>
      </trkpt>
      <trkpt lat="50.07183" lon="5.21314">
        <ele>318</ele>
        <time>2018-07-29T09:48:10Z</time>
      </trkpt>
      <trkpt lat="50.07183" lon="5.21314">
        <ele>319</ele>
        <time>2018-07-29T09:48:20Z</time>
      </trkpt>
      <trkpt lat="50.07182" lon="5.21314">
        <ele>319</ele>
        <time>2018-07-29T09:48:30Z</time>
      </trkpt>
      <trkpt lat="50.0718" lon="5.21314">
        <ele>319</ele>
        <time>2018-07-29T09:48:41Z</time>
      </trkpt>
      <trkpt lat="50.07175" lon="5.21315">
        <ele>319</ele>
        <time>2018-07-29T09:48:52Z</time>
      </trkpt>
      <trkpt lat="50.07176" lon="5.21316">
        <ele>319</ele>
        <time>2018-07-29T09:49:02Z</time>
      </trkpt>
      <trkpt lat="50.07177" lon="5.21317">
        <ele>319</ele>
        <time>2018-07-29T09:49:12Z</time>
      </trkpt>
      <trkpt lat="50.07177" lon="5.21317">
        <ele>318</ele>
        <time>2018-07-29T09:49:23Z</time>
      </trkpt>
      <trkpt lat="50.07177" lon="5.21317">
        <ele>319</ele>
        <time>2018-07-29T09:49:38Z</time>
      </trkpt>
      <trkpt lat="50.07177" lon="5.21317">
        <ele>319</ele>
        <time>2018-07-29T09:49:48Z</time>
      </trkpt>
      <trkpt lat="50.07177" lon="5.21317">
        <ele>318</ele>
        <time>2018-07-29T09:49:59Z</time>
      </trkpt>
      <trkpt lat="50.07178" lon="5.21317">
        <ele>319</ele>
        <time>2018-07-29T09:50:09Z</time>
      </trkpt>
      <trkpt lat="50.07179" lon="5.21316">
        <ele>319</ele>
        <time>2018-07-29T09:50:20Z</time>
      </trkpt>
      <trkpt lat="50.07181" lon="5.21317">
        <ele>320</ele>
        <time>2018-07-29T09:50:31Z</time>
      </trkpt>
      <trkpt lat="50.07182" lon="5.21318">
        <ele>320</ele>
        <time>2018-07-29T09:50:41Z</time>
      </trkpt>
      <trkpt lat="50.07184" lon="5.21319">
        <ele>320</ele>
        <time>2018-07-29T09:50:52Z</time>
      </trkpt>
      <trkpt lat="50.07184" lon="5.21319">
        <ele>319</ele>
        <time>2018-07-29T09:51:02Z</time>
      </trkpt>
      <trkpt lat="50.07183" lon="5.2132">
        <ele>319</ele>
        <time>2018-07-29T09:51:13Z</time>
      </trkpt>
      <trkpt lat="50.07182" lon="5.21319">
        <ele>319</ele>
        <time>2018-07-29T09:51:24Z</time>
      </trkpt>
      <trkpt lat="50.07182" lon="5.21319">
        <ele>319</ele>
        <time>2018-07-29T09:51:34Z</time>
      </trkpt>
      <trkpt lat="50.07182" lon="5.21318">
        <ele>319</ele>
        <time>2018-07-29T09:51:45Z</time>
      </trkpt>
      <trkpt lat="50.07181" lon="5.21318">
        <ele>319</ele>
        <time>2018-07-29T09:51:56Z</time>
      </trkpt>
      <trkpt lat="50.0718" lon="5.21317">
        <ele>319</ele>
        <time>2018-07-29T09:52:07Z</time>
      </trkpt>
      <trkpt lat="50.07179" lon="5.21317">
        <ele>319</ele>
        <time>2018-07-29T09:52:18Z</time>
      </trkpt>
      <trkpt lat="50.07179" lon="5.21316">
        <ele>319</ele>
        <time>2018-07-29T09:52:32Z</time>
      </trkpt>
      <trkpt lat="50.07179" lon="5.21316">
        <ele>319</ele>
        <time>2018-07-29T09:52:46Z</time>
      </trkpt>
      <trkpt lat="50.07179" lon="5.21316">
        <ele>319</ele>
        <time>2018-07-29T09:52:57Z</time>
      </trkpt>
      <trkpt lat="50.07177" lon="5.21316">
        <ele>318</ele>
        <time>2018-07-29T09:53:08Z</time>
      </trkpt>
      <trkpt lat="50.07175" lon="5.21315">
        <ele>319</ele>
        <time>2018-07-29T09:53:18Z</time>
      </trkpt>
      <trkpt lat="50.07174" lon="5.21315">
        <ele>319</ele>
        <time>2018-07-29T09:53:29Z</time>
      </trkpt>
      <trkpt lat="50.07174" lon="5.21314">
        <ele>319</ele>
        <time>2018-07-29T09:53:42Z</time>
      </trkpt>
      <trkpt lat="50.07174" lon="5.21314">
        <ele>319</ele>
        <time>2018-07-29T09:53:53Z</time>
      </trkpt>
      <trkpt lat="50.07174" lon="5.21313">
        <ele>319</ele>
        <time>2018-07-29T09:54:04Z</time>
      </trkpt>
      <trkpt lat="50.07174" lon="5.21313">
        <ele>319</ele>
        <time>2018-07-29T09:54:15Z</time>
      </trkpt>
      <trkpt lat="50.07173" lon="5.21312">
        <ele>318</ele>
        <time>2018-07-29T09:54:26Z</time>
      </trkpt>
      <trkpt lat="50.07172" lon="5.21311">
        <ele>319</ele>
        <time>2018-07-29T09:54:38Z</time>
      </trkpt>
      <trkpt lat="50.07171" lon="5.21309">
        <ele>319</ele>
        <time>2018-07-29T09:54:49Z</time>
      </trkpt>
      <trkpt lat="50.0717" lon="5.21308">
        <ele>319</ele>
        <time>2018-07-29T09:54:59Z</time>
      </trkpt>
      <trkpt lat="50.07169" lon="5.21308">
        <ele>320</ele>
        <time>2018-07-29T09:55:09Z</time>
      </trkpt>
      <trkpt lat="50.07172" lon="5.2131">
        <ele>320</ele>
        <time>2018-07-29T09:55:19Z</time>
      </trkpt>
      <trkpt lat="50.07175" lon="5.21313">
        <ele>320</ele>
        <time>2018-07-29T09:55:30Z</time>
      </trkpt>
      <trkpt lat="50.07177" lon="5.21315">
        <ele>319</ele>
        <time>2018-07-29T09:55:41Z</time>
      </trkpt>
      <trkpt lat="50.07181" lon="5.21318">
        <ele>319</ele>
        <time>2018-07-29T09:55:51Z</time>
      </trkpt>
      <trkpt lat="50.07182" lon="5.21319">
        <ele>320</ele>
        <time>2018-07-29T09:56:02Z</time>
      </trkpt>
      <trkpt lat="50.07178" lon="5.21319">
        <ele>320</ele>
        <time>2018-07-29T09:56:12Z</time>
      </trkpt>
      <trkpt lat="50.07173" lon="5.21316">
        <ele>319</ele>
        <time>2018-07-29T09:56:23Z</time>
      </trkpt>
      <trkpt lat="50.07175" lon="5.21314">
        <ele>320</ele>
        <time>2018-07-29T09:56:33Z</time>
      </trkpt>
      <trkpt lat="50.07161" lon="5.21312">
        <ele>319</ele>
        <time>2018-07-29T09:56:44Z</time>
      </trkpt>
      <trkpt lat="50.07157" lon="5.21311">
        <ele>319</ele>
        <time>2018-07-29T09:56:55Z</time>
      </trkpt>
      <trkpt lat="50.07164" lon="5.21312">
        <ele>320</ele>
        <time>2018-07-29T09:57:06Z</time>
      </trkpt>
      <trkpt lat="50.07167" lon="5.21313">
        <ele>320</ele>
        <time>2018-07-29T09:57:16Z</time>
      </trkpt>
      <trkpt lat="50.07167" lon="5.2131">
        <ele>320</ele>
        <time>2018-07-29T09:57:26Z</time>
      </trkpt>
      <trkpt lat="50.07167" lon="5.2131">
        <ele>321</ele>
        <time>2018-07-29T09:57:37Z</time>
      </trkpt>
      <trkpt lat="50.07168" lon="5.21315">
        <ele>320</ele>
        <time>2018-07-29T09:57:47Z</time>
      </trkpt>
      <trkpt lat="50.07177" lon="5.2132">
        <ele>320</ele>
        <time>2018-07-29T09:57:58Z</time>
      </trkpt>
      <trkpt lat="50.07187" lon="5.2132">
        <ele>318</ele>
        <time>2018-07-29T09:58:09Z</time>
      </trkpt>
      <trkpt lat="50.07198" lon="5.21322">
        <ele>318</ele>
        <time>2018-07-29T09:58:19Z</time>
      </trkpt>
      <trkpt lat="50.07206" lon="5.21323">
        <ele>317</ele>
        <time>2018-07-29T09:58:30Z</time>
      </trkpt>
      <trkpt lat="50.07217" lon="5.2132">
        <ele>317</ele>
        <time>2018-07-29T09:58:41Z</time>
      </trkpt>
      <trkpt lat="50.07228" lon="5.21319">
        <ele>316</ele>
        <time>2018-07-29T09:58:51Z</time>
      </trkpt>
      <trkpt lat="50.07238" lon="5.21318">
        <ele>316</ele>
        <time>2018-07-29T09:59:02Z</time>
      </trkpt>
      <trkpt lat="50.07248" lon="5.2132">
        <ele>316</ele>
        <time>2018-07-29T09:59:13Z</time>
      </trkpt>
      <trkpt lat="50.07261" lon="5.21321">
        <ele>315</ele>
        <time>2018-07-29T09:59:24Z</time>
      </trkpt>
      <trkpt lat="50.07273" lon="5.21322">
        <ele>316</ele>
        <time>2018-07-29T09:59:34Z</time>
      </trkpt>
      <trkpt lat="50.07286" lon="5.21324">
        <ele>315</ele>
        <time>2018-07-29T09:59:45Z</time>
      </trkpt>
      <trkpt lat="50.07297" lon="5.21325">
        <ele>315</ele>
        <time>2018-07-29T09:59:55Z</time>
      </trkpt>
      <trkpt lat="50.07307" lon="5.21328">
        <ele>315</ele>
        <time>2018-07-29T10:00:06Z</time>
      </trkpt>
      <trkpt lat="50.07318" lon="5.2133">
        <ele>315</ele>
        <time>2018-07-29T10:00:17Z</time>
      </trkpt>
      <trkpt lat="50.0733" lon="5.21331">
        <ele>315</ele>
        <time>2018-07-29T10:00:28Z</time>
      </trkpt>
      <trkpt lat="50.07341" lon="5.2133">
        <ele>315</ele>
        <time>2018-07-29T10:00:38Z</time>
      </trkpt>
      <trkpt lat="50.07353" lon="5.21328">
        <ele>314</ele>
        <time>2018-07-29T10:00:49Z</time>
      </trkpt>
      <trkpt lat="50.07365" lon="5.21324">
        <ele>315</ele>
        <time>2018-07-29T10:01:00Z</time>
      </trkpt>
      <trkpt lat="50.07374" lon="5.21321">
        <ele>314</ele>
        <time>2018-07-29T10:01:10Z</time>
      </trkpt>
      <trkpt lat="50.07384" lon="5.21318">
        <ele>313</ele>
        <time>2018-07-29T10:01:20Z</time>
      </trkpt>
      <trkpt lat="50.07393" lon="5.21313">
        <ele>313</ele>
        <time>2018-07-29T10:01:30Z</time>
      </trkpt>
      <trkpt lat="50.07404" lon="5.2131">
        <ele>312</ele>
        <time>2018-07-29T10:01:41Z</time>
      </trkpt>
      <trkpt lat="50.07416" lon="5.21308">
        <ele>310</ele>
        <time>2018-07-29T10:01:52Z</time>
      </trkpt>
      <trkpt lat="50.07426" lon="5.21306">
        <ele>309</ele>
        <time>2018-07-29T10:02:02Z</time>
      </trkpt>
      <trkpt lat="50.07436" lon="5.21301">
        <ele>308</ele>
        <time>2018-07-29T10:02:13Z</time>
      </trkpt>
      <trkpt lat="50.07445" lon="5.21299">
        <ele>306</ele>
        <time>2018-07-29T10:02:23Z</time>
      </trkpt>
      <trkpt lat="50.07457" lon="5.21296">
        <ele>305</ele>
        <time>2018-07-29T10:02:34Z</time>
      </trkpt>
      <trkpt lat="50.07466" lon="5.21294">
        <ele>304</ele>
        <time>2018-07-29T10:02:44Z</time>
      </trkpt>
      <trkpt lat="50.07478" lon="5.2129">
        <ele>301</ele>
        <time>2018-07-29T10:02:55Z</time>
      </trkpt>
      <trkpt lat="50.07487" lon="5.21288">
        <ele>300</ele>
        <time>2018-07-29T10:03:05Z</time>
      </trkpt>
      <trkpt lat="50.07497" lon="5.21286">
        <ele>299</ele>
        <time>2018-07-29T10:03:15Z</time>
      </trkpt>
      <trkpt lat="50.07506" lon="5.21282">
        <ele>296</ele>
        <time>2018-07-29T10:03:25Z</time>
      </trkpt>
      <trkpt lat="50.07518" lon="5.21279">
        <ele>295</ele>
        <time>2018-07-29T10:03:36Z</time>
      </trkpt>
      <trkpt lat="50.07528" lon="5.21277">
        <ele>293</ele>
        <time>2018-07-29T10:03:47Z</time>
      </trkpt>
      <trkpt lat="50.07533" lon="5.21282">
        <ele>292</ele>
        <time>2018-07-29T10:03:57Z</time>
      </trkpt>
      <trkpt lat="50.07536" lon="5.21278">
        <ele>293</ele>
        <time>2018-07-29T10:04:07Z</time>
      </trkpt>
      <trkpt lat="50.07544" lon="5.21278">
        <ele>291</ele>
        <time>2018-07-29T10:04:17Z</time>
      </trkpt>
      <trkpt lat="50.07559" lon="5.2128">
        <ele>290</ele>
        <time>2018-07-29T10:04:28Z</time>
      </trkpt>
      <trkpt lat="50.07571" lon="5.21284">
        <ele>288</ele>
        <time>2018-07-29T10:04:39Z</time>
      </trkpt>
      <trkpt lat="50.07581" lon="5.2129">
        <ele>287</ele>
        <time>2018-07-29T10:04:49Z</time>
      </trkpt>
      <trkpt lat="50.07591" lon="5.21297">
        <ele>286</ele>
        <time>2018-07-29T10:05:00Z</time>
      </trkpt>
      <trkpt lat="50.07604" lon="5.213">
        <ele>285</ele>
        <time>2018-07-29T10:05:11Z</time>
      </trkpt>
      <trkpt lat="50.07614" lon="5.21305">
        <ele>284</ele>
        <time>2018-07-29T10:05:21Z</time>
      </trkpt>
      <trkpt lat="50.07625" lon="5.21311">
        <ele>283</ele>
        <time>2018-07-29T10:05:32Z</time>
      </trkpt>
      <trkpt lat="50.07633" lon="5.21318">
        <ele>282</ele>
        <time>2018-07-29T10:05:43Z</time>
      </trkpt>
      <trkpt lat="50.0764" lon="5.21326">
        <ele>280</ele>
        <time>2018-07-29T10:05:53Z</time>
      </trkpt>
      <trkpt lat="50.07646" lon="5.21333">
        <ele>280</ele>
        <time>2018-07-29T10:06:03Z</time>
      </trkpt>
      <trkpt lat="50.07646" lon="5.21328">
        <ele>279</ele>
        <time>2018-07-29T10:06:14Z</time>
      </trkpt>
      <trkpt lat="50.07654" lon="5.21338">
        <ele>278</ele>
        <time>2018-07-29T10:06:24Z</time>
      </trkpt>
      <trkpt lat="50.07661" lon="5.21352">
        <ele>277</ele>
        <time>2018-07-29T10:06:35Z</time>
      </trkpt>
      <trkpt lat="50.07665" lon="5.21371">
        <ele>276</ele>
        <time>2018-07-29T10:06:46Z</time>
      </trkpt>
      <trkpt lat="50.0767" lon="5.21384">
        <ele>273</ele>
        <time>2018-07-29T10:06:56Z</time>
      </trkpt>
      <trkpt lat="50.07676" lon="5.21398">
        <ele>272</ele>
        <time>2018-07-29T10:07:07Z</time>
      </trkpt>
      <trkpt lat="50.07682" lon="5.21414">
        <ele>271</ele>
        <time>2018-07-29T10:07:17Z</time>
      </trkpt>
      <trkpt lat="50.0769" lon="5.21426">
        <ele>269</ele>
        <time>2018-07-29T10:07:28Z</time>
      </trkpt>
      <trkpt lat="50.07697" lon="5.2144">
        <ele>267</ele>
        <time>2018-07-29T10:07:39Z</time>
      </trkpt>
      <trkpt lat="50.07706" lon="5.21452">
        <ele>266</ele>
        <time>2018-07-29T10:07:49Z</time>
      </trkpt>
      <trkpt lat="50.07712" lon="5.21461">
        <ele>264</ele>
        <time>2018-07-29T10:08:00Z</time>
      </trkpt>
      <trkpt lat="50.07711" lon="5.21464">
        <ele>264</ele>
        <time>2018-07-29T10:08:11Z</time>
      </trkpt>
      <trkpt lat="50.07715" lon="5.21464">
        <ele>264</ele>
        <time>2018-07-29T10:08:21Z</time>
      </trkpt>
      <trkpt lat="50.07721" lon="5.21471">
        <ele>264</ele>
        <time>2018-07-29T10:08:32Z</time>
      </trkpt>
      <trkpt lat="50.07729" lon="5.21476">
        <ele>261</ele>
        <time>2018-07-29T10:08:42Z</time>
      </trkpt>
      <trkpt lat="50.07737" lon="5.21483">
        <ele>260</ele>
        <time>2018-07-29T10:08:52Z</time>
      </trkpt>
      <trkpt lat="50.07747" lon="5.21492">
        <ele>258</ele>
        <time>2018-07-29T10:09:03Z</time>
      </trkpt>
      <trkpt lat="50.07757" lon="5.21501">
        <ele>257</ele>
        <time>2018-07-29T10:09:14Z</time>
      </trkpt>
      <trkpt lat="50.0777" lon="5.21505">
        <ele>255</ele>
        <time>2018-07-29T10:09:24Z</time>
      </trkpt>
      <trkpt lat="50.07773" lon="5.2151">
        <ele>254</ele>
        <time>2018-07-29T10:09:35Z</time>
      </trkpt>
      <trkpt lat="50.07782" lon="5.21513">
        <ele>253</ele>
        <time>2018-07-29T10:09:46Z</time>
      </trkpt>
      <trkpt lat="50.07789" lon="5.21516">
        <ele>252</ele>
        <time>2018-07-29T10:09:56Z</time>
      </trkpt>
      <trkpt lat="50.07799" lon="5.21524">
        <ele>251</ele>
        <time>2018-07-29T10:10:07Z</time>
      </trkpt>
      <trkpt lat="50.07808" lon="5.21531">
        <ele>248</ele>
        <time>2018-07-29T10:10:17Z</time>
      </trkpt>
      <trkpt lat="50.07816" lon="5.21542">
        <ele>247</ele>
        <time>2018-07-29T10:10:28Z</time>
      </trkpt>
      <trkpt lat="50.07827" lon="5.21551">
        <ele>246</ele>
        <time>2018-07-29T10:10:39Z</time>
      </trkpt>
      <trkpt lat="50.07838" lon="5.21556">
        <ele>245</ele>
        <time>2018-07-29T10:10:49Z</time>
      </trkpt>
      <trkpt lat="50.0785" lon="5.21559">
        <ele>244</ele>
        <time>2018-07-29T10:11:00Z</time>
      </trkpt>
      <trkpt lat="50.07861" lon="5.21559">
        <ele>244</ele>
        <time>2018-07-29T10:11:11Z</time>
      </trkpt>
      <trkpt lat="50.07873" lon="5.21562">
        <ele>243</ele>
        <time>2018-07-29T10:11:21Z</time>
      </trkpt>
      <trkpt lat="50.0788" lon="5.21567">
        <ele>242</ele>
        <time>2018-07-29T10:11:31Z</time>
      </trkpt>
      <trkpt lat="50.07889" lon="5.21574">
        <ele>242</ele>
        <time>2018-07-29T10:11:42Z</time>
      </trkpt>
      <trkpt lat="50.079" lon="5.21583">
        <ele>242</ele>
        <time>2018-07-29T10:11:52Z</time>
      </trkpt>
      <trkpt lat="50.07907" lon="5.21593">
        <ele>242</ele>
        <time>2018-07-29T10:12:03Z</time>
      </trkpt>
      <trkpt lat="50.07912" lon="5.21598">
        <ele>243</ele>
        <time>2018-07-29T10:12:14Z</time>
      </trkpt>
      <trkpt lat="50.07924" lon="5.21608">
        <ele>243</ele>
        <time>2018-07-29T10:12:24Z</time>
      </trkpt>
      <trkpt lat="50.07933" lon="5.21613">
        <ele>242</ele>
        <time>2018-07-29T10:12:35Z</time>
      </trkpt>
      <trkpt lat="50.07941" lon="5.21621">
        <ele>241</ele>
        <time>2018-07-29T10:12:46Z</time>
      </trkpt>
      <trkpt lat="50.07946" lon="5.21632">
        <ele>240</ele>
        <time>2018-07-29T10:12:56Z</time>
      </trkpt>
      <trkpt lat="50.07954" lon="5.21647">
        <ele>240</ele>
        <time>2018-07-29T10:13:07Z</time>
      </trkpt>
      <trkpt lat="50.0796" lon="5.21658">
        <ele>240</ele>
        <time>2018-07-29T10:13:17Z</time>
      </trkpt>
      <trkpt lat="50.07968" lon="5.21674">
        <ele>240</ele>
        <time>2018-07-29T10:13:28Z</time>
      </trkpt>
      <trkpt lat="50.07976" lon="5.21686">
        <ele>240</ele>
        <time>2018-07-29T10:13:39Z</time>
      </trkpt>
      <trkpt lat="50.07981" lon="5.21695">
        <ele>239</ele>
        <time>2018-07-29T10:13:50Z</time>
      </trkpt>
      <trkpt lat="50.07992" lon="5.21715">
        <ele>239</ele>
        <time>2018-07-29T10:14:01Z</time>
      </trkpt>
      <trkpt lat="50.07992" lon="5.21717">
        <ele>238</ele>
        <time>2018-07-29T10:14:11Z</time>
      </trkpt>
      <trkpt lat="50.07998" lon="5.21728">
        <ele>239</ele>
        <time>2018-07-29T10:14:22Z</time>
      </trkpt>
      <trkpt lat="50.08006" lon="5.2174">
        <ele>239</ele>
        <time>2018-07-29T10:14:33Z</time>
      </trkpt>
      <trkpt lat="50.08011" lon="5.21756">
        <ele>238</ele>
        <time>2018-07-29T10:14:43Z</time>
      </trkpt>
      <trkpt lat="50.08016" lon="5.21771">
        <ele>238</ele>
        <time>2018-07-29T10:14:54Z</time>
      </trkpt>
      <trkpt lat="50.08021" lon="5.21784">
        <ele>237</ele>
        <time>2018-07-29T10:15:04Z</time>
      </trkpt>
      <trkpt lat="50.08026" lon="5.21802">
        <ele>237</ele>
        <time>2018-07-29T10:15:15Z</time>
      </trkpt>
      <trkpt lat="50.0803" lon="5.21818">
        <ele>237</ele>
        <time>2018-07-29T10:15:26Z</time>
      </trkpt>
      <trkpt lat="50.08032" lon="5.21833">
        <ele>236</ele>
        <time>2018-07-29T10:15:36Z</time>
      </trkpt>
      <trkpt lat="50.08038" lon="5.21846">
        <ele>236</ele>
        <time>2018-07-29T10:15:47Z</time>
      </trkpt>
      <trkpt lat="50.08042" lon="5.21864">
        <ele>236</ele>
        <time>2018-07-29T10:15:57Z</time>
      </trkpt>
      <trkpt lat="50.08049" lon="5.21876">
        <ele>235</ele>
        <time>2018-07-29T10:16:08Z</time>
      </trkpt>
      <trkpt lat="50.08054" lon="5.21885">
        <ele>235</ele>
        <time>2018-07-29T10:16:19Z</time>
      </trkpt>
      <trkpt lat="50.08054" lon="5.21892">
        <ele>235</ele>
        <time>2018-07-29T10:16:30Z</time>
      </trkpt>
      <trkpt lat="50.08057" lon="5.21904">
        <ele>235</ele>
        <time>2018-07-29T10:16:40Z</time>
      </trkpt>
      <trkpt lat="50.08063" lon="5.21922">
        <ele>235</ele>
        <time>2018-07-29T10:16:51Z</time>
      </trkpt>
      <trkpt lat="50.08064" lon="5.21938">
        <ele>234</ele>
        <time>2018-07-29T10:17:02Z</time>
      </trkpt>
      <trkpt lat="50.08067" lon="5.21954">
        <ele>235</ele>
        <time>2018-07-29T10:17:13Z</time>
      </trkpt>
      <trkpt lat="50.08071" lon="5.21973">
        <ele>234</ele>
        <time>2018-07-29T10:17:23Z</time>
      </trkpt>
      <trkpt lat="50.08074" lon="5.21989">
        <ele>234</ele>
        <time>2018-07-29T10:17:33Z</time>
      </trkpt>
      <trkpt lat="50.08076" lon="5.21998">
        <ele>234</ele>
        <time>2018-07-29T10:17:44Z</time>
      </trkpt>
      <trkpt lat="50.08083" lon="5.22013">
        <ele>234</ele>
        <time>2018-07-29T10:17:55Z</time>
      </trkpt>
      <trkpt lat="50.08089" lon="5.22026">
        <ele>233</ele>
        <time>2018-07-29T10:18:06Z</time>
      </trkpt>
      <trkpt lat="50.08096" lon="5.22041">
        <ele>233</ele>
        <time>2018-07-29T10:18:16Z</time>
      </trkpt>
      <trkpt lat="50.08102" lon="5.22056">
        <ele>233</ele>
        <time>2018-07-29T10:18:27Z</time>
      </trkpt>
      <trkpt lat="50.08108" lon="5.22068">
        <ele>233</ele>
        <time>2018-07-29T10:18:37Z</time>
      </trkpt>
      <trkpt lat="50.08119" lon="5.22081">
        <ele>233</ele>
        <time>2018-07-29T10:18:48Z</time>
      </trkpt>
      <trkpt lat="50.08127" lon="5.22083">
        <ele>232</ele>
        <time>2018-07-29T10:18:58Z</time>
      </trkpt>
      <trkpt lat="50.0814" lon="5.22079">
        <ele>233</ele>
        <time>2018-07-29T10:19:09Z</time>
      </trkpt>
      <trkpt lat="50.08147" lon="5.22071">
        <ele>233</ele>
        <time>2018-07-29T10:19:19Z</time>
      </trkpt>
      <trkpt lat="50.08158" lon="5.22066">
        <ele>233</ele>
        <time>2018-07-29T10:19:29Z</time>
      </trkpt>
      <trkpt lat="50.0817" lon="5.22073">
        <ele>233</ele>
        <time>2018-07-29T10:19:40Z</time>
      </trkpt>
      <trkpt lat="50.08178" lon="5.2208">
        <ele>232</ele>
        <time>2018-07-29T10:19:51Z</time>
      </trkpt>
      <trkpt lat="50.08189" lon="5.2208">
        <ele>231</ele>
        <time>2018-07-29T10:20:02Z</time>
      </trkpt>
      <trkpt lat="50.08192" lon="5.22085">
        <ele>231</ele>
        <time>2018-07-29T10:20:13Z</time>
      </trkpt>
      <trkpt lat="50.08198" lon="5.22095">
        <ele>230</ele>
        <time>2018-07-29T10:20:24Z</time>
      </trkpt>
      <trkpt lat="50.08209" lon="5.22107">
        <ele>230</ele>
        <time>2018-07-29T10:20:34Z</time>
      </trkpt>
      <trkpt lat="50.0822" lon="5.22119">
        <ele>229</ele>
        <time>2018-07-29T10:20:45Z</time>
      </trkpt>
      <trkpt lat="50.08229" lon="5.22121">
        <ele>228</ele>
        <time>2018-07-29T10:20:55Z</time>
      </trkpt>
      <trkpt lat="50.08238" lon="5.22126">
        <ele>228</ele>
        <time>2018-07-29T10:21:06Z</time>
      </trkpt>
      <trkpt lat="50.08249" lon="5.22123">
        <ele>227</ele>
        <time>2018-07-29T10:21:16Z</time>
      </trkpt>
      <trkpt lat="50.08262" lon="5.22119">
        <ele>227</ele>
        <time>2018-07-29T10:21:27Z</time>
      </trkpt>
      <trkpt lat="50.08275" lon="5.22113">
        <ele>227</ele>
        <time>2018-07-29T10:21:37Z</time>
      </trkpt>
      <trkpt lat="50.08288" lon="5.22109">
        <ele>226</ele>
        <time>2018-07-29T10:21:48Z</time>
      </trkpt>
      <trkpt lat="50.08298" lon="5.22105">
        <ele>225</ele>
        <time>2018-07-29T10:21:58Z</time>
      </trkpt>
      <trkpt lat="50.08309" lon="5.22102">
        <ele>225</ele>
        <time>2018-07-29T10:22:08Z</time>
      </trkpt>
      <trkpt lat="50.08321" lon="5.22101">
        <ele>225</ele>
        <time>2018-07-29T10:22:19Z</time>
      </trkpt>
      <trkpt lat="50.08333" lon="5.22099">
        <ele>225</ele>
        <time>2018-07-29T10:22:29Z</time>
      </trkpt>
      <trkpt lat="50.08334" lon="5.22097">
        <ele>225</ele>
        <time>2018-07-29T10:22:39Z</time>
      </trkpt>
      <trkpt lat="50.08334" lon="5.22096">
        <ele>225</ele>
        <time>2018-07-29T10:22:50Z</time>
      </trkpt>
      <trkpt lat="50.08344" lon="5.22098">
        <ele>225</ele>
        <time>2018-07-29T10:23:00Z</time>
      </trkpt>
      <trkpt lat="50.08358" lon="5.22096">
        <ele>225</ele>
        <time>2018-07-29T10:23:10Z</time>
      </trkpt>
      <trkpt lat="50.08371" lon="5.22096">
        <ele>225</ele>
        <time>2018-07-29T10:23:21Z</time>
      </trkpt>
      <trkpt lat="50.0838" lon="5.22093">
        <ele>225</ele>
        <time>2018-07-29T10:23:31Z</time>
      </trkpt>
      <trkpt lat="50.08384" lon="5.22098">
        <ele>225</ele>
        <time>2018-07-29T10:23:42Z</time>
      </trkpt>
      <trkpt lat="50.08394" lon="5.22092">
        <ele>224</ele>
        <time>2018-07-29T10:23:53Z</time>
      </trkpt>
      <trkpt lat="50.08404" lon="5.22088">
        <ele>224</ele>
        <time>2018-07-29T10:24:04Z</time>
      </trkpt>
      <trkpt lat="50.08415" lon="5.22086">
        <ele>224</ele>
        <time>2018-07-29T10:24:15Z</time>
      </trkpt>
      <trkpt lat="50.08425" lon="5.22082">
        <ele>224</ele>
        <time>2018-07-29T10:24:25Z</time>
      </trkpt>
      <trkpt lat="50.08437" lon="5.22082">
        <ele>223</ele>
        <time>2018-07-29T10:24:36Z</time>
      </trkpt>
      <trkpt lat="50.08447" lon="5.22079">
        <ele>224</ele>
        <time>2018-07-29T10:24:47Z</time>
      </trkpt>
      <trkpt lat="50.08455" lon="5.22066">
        <ele>224</ele>
        <time>2018-07-29T10:24:57Z</time>
      </trkpt>
      <trkpt lat="50.08456" lon="5.22047">
        <ele>223</ele>
        <time>2018-07-29T10:25:08Z</time>
      </trkpt>
      <trkpt lat="50.08461" lon="5.22029">
        <ele>223</ele>
        <time>2018-07-29T10:25:19Z</time>
      </trkpt>
      <trkpt lat="50.08466" lon="5.22018">
        <ele>223</ele>
        <time>2018-07-29T10:25:29Z</time>
      </trkpt>
      <trkpt lat="50.08469" lon="5.21999">
        <ele>223</ele>
        <time>2018-07-29T10:25:40Z</time>
      </trkpt>
      <trkpt lat="50.08479" lon="5.21988">
        <ele>223</ele>
        <time>2018-07-29T10:25:51Z</time>
      </trkpt>
      <trkpt lat="50.08486" lon="5.21982">
        <ele>224</ele>
        <time>2018-07-29T10:26:01Z</time>
      </trkpt>
      <trkpt lat="50.08496" lon="5.21978">
        <ele>224</ele>
        <time>2018-07-29T10:26:12Z</time>
      </trkpt>
      <trkpt lat="50.08507" lon="5.21974">
        <ele>223</ele>
        <time>2018-07-29T10:26:23Z</time>
      </trkpt>
      <trkpt lat="50.08518" lon="5.21971">
        <ele>224</ele>
        <time>2018-07-29T10:26:33Z</time>
      </trkpt>
      <trkpt lat="50.0853" lon="5.21966">
        <ele>224</ele>
        <time>2018-07-29T10:26:44Z</time>
      </trkpt>
      <trkpt lat="50.08541" lon="5.21959">
        <ele>223</ele>
        <time>2018-07-29T10:26:55Z</time>
      </trkpt>
      <trkpt lat="50.08551" lon="5.21956">
        <ele>223</ele>
        <time>2018-07-29T10:27:06Z</time>
      </trkpt>
      <trkpt lat="50.08559" lon="5.21953">
        <ele>223</ele>
        <time>2018-07-29T10:27:16Z</time>
      </trkpt>
      <trkpt lat="50.0857" lon="5.21947">
        <ele>222</ele>
        <time>2018-07-29T10:27:27Z</time>
      </trkpt>
      <trkpt lat="50.08582" lon="5.21938">
        <ele>222</ele>
        <time>2018-07-29T10:27:37Z</time>
      </trkpt>
      <trkpt lat="50.08594" lon="5.21933">
        <ele>222</ele>
        <time>2018-07-29T10:27:48Z</time>
      </trkpt>
      <trkpt lat="50.08606" lon="5.21927">
        <ele>222</ele>
        <time>2018-07-29T10:27:59Z</time>
      </trkpt>
      <trkpt lat="50.08617" lon="5.2192">
        <ele>222</ele>
        <time>2018-07-29T10:28:10Z</time>
      </trkpt>
      <trkpt lat="50.08627" lon="5.21913">
        <ele>222</ele>
        <time>2018-07-29T10:28:20Z</time>
      </trkpt>
      <trkpt lat="50.08637" lon="5.21907">
        <ele>222</ele>
        <time>2018-07-29T10:28:30Z</time>
      </trkpt>
      <trkpt lat="50.08648" lon="5.21902">
        <ele>222</ele>
        <time>2018-07-29T10:28:41Z</time>
      </trkpt>
      <trkpt lat="50.08659" lon="5.21897">
        <ele>223</ele>
        <time>2018-07-29T10:28:52Z</time>
      </trkpt>
      <trkpt lat="50.08662" lon="5.21895">
        <ele>222</ele>
        <time>2018-07-29T10:29:03Z</time>
      </trkpt>
      <trkpt lat="50.08672" lon="5.21891">
        <ele>222</ele>
        <time>2018-07-29T10:29:13Z</time>
      </trkpt>
      <trkpt lat="50.08682" lon="5.21887">
        <ele>222</ele>
        <time>2018-07-29T10:29:23Z</time>
      </trkpt>
      <trkpt lat="50.08693" lon="5.21885">
        <ele>222</ele>
        <time>2018-07-29T10:29:33Z</time>
      </trkpt>
      <trkpt lat="50.08705" lon="5.21881">
        <ele>222</ele>
        <time>2018-07-29T10:29:43Z</time>
      </trkpt>
      <trkpt lat="50.08715" lon="5.21876">
        <ele>222</ele>
        <time>2018-07-29T10:29:54Z</time>
      </trkpt>
      <trkpt lat="50.08726" lon="5.2187">
        <ele>221</ele>
        <time>2018-07-29T10:30:05Z</time>
      </trkpt>
      <trkpt lat="50.08737" lon="5.21863">
        <ele>222</ele>
        <time>2018-07-29T10:30:16Z</time>
      </trkpt>
      <trkpt lat="50.08746" lon="5.21859">
        <ele>222</ele>
        <time>2018-07-29T10:30:27Z</time>
      </trkpt>
      <trkpt lat="50.08759" lon="5.21854">
        <ele>221</ele>
        <time>2018-07-29T10:30:38Z</time>
      </trkpt>
      <trkpt lat="50.0877" lon="5.2185">
        <ele>221</ele>
        <time>2018-07-29T10:30:48Z</time>
      </trkpt>
      <trkpt lat="50.08781" lon="5.21844">
        <ele>221</ele>
        <time>2018-07-29T10:30:59Z</time>
      </trkpt>
      <trkpt lat="50.08791" lon="5.21839">
        <ele>221</ele>
        <time>2018-07-29T10:31:09Z</time>
      </trkpt>
      <trkpt lat="50.08802" lon="5.21835">
        <ele>220</ele>
        <time>2018-07-29T10:31:19Z</time>
      </trkpt>
      <trkpt lat="50.08812" lon="5.21831">
        <ele>221</ele>
        <time>2018-07-29T10:31:29Z</time>
      </trkpt>
      <trkpt lat="50.08822" lon="5.21826">
        <ele>221</ele>
        <time>2018-07-29T10:31:39Z</time>
      </trkpt>
      <trkpt lat="50.08833" lon="5.21821">
        <ele>222</ele>
        <time>2018-07-29T10:31:49Z</time>
      </trkpt>
      <trkpt lat="50.08842" lon="5.21817">
        <ele>222</ele>
        <time>2018-07-29T10:32:00Z</time>
      </trkpt>
      <trkpt lat="50.08852" lon="5.21812">
        <ele>223</ele>
        <time>2018-07-29T10:32:10Z</time>
      </trkpt>
      <trkpt lat="50.08863" lon="5.21806">
        <ele>223</ele>
        <time>2018-07-29T10:32:20Z</time>
      </trkpt>
      <trkpt lat="50.08873" lon="5.21801">
        <ele>223</ele>
        <time>2018-07-29T10:32:30Z</time>
      </trkpt>
      <trkpt lat="50.08881" lon="5.21801">
        <ele>223</ele>
        <time>2018-07-29T10:32:41Z</time>
      </trkpt>
      <trkpt lat="50.08885" lon="5.21817">
        <ele>223</ele>
        <time>2018-07-29T10:32:52Z</time>
      </trkpt>
      <trkpt lat="50.08886" lon="5.21834">
        <ele>223</ele>
        <time>2018-07-29T10:33:03Z</time>
      </trkpt>
      <trkpt lat="50.08886" lon="5.2185">
        <ele>222</ele>
        <time>2018-07-29T10:33:13Z</time>
      </trkpt>
      <trkpt lat="50.08887" lon="5.21867">
        <ele>222</ele>
        <time>2018-07-29T10:33:24Z</time>
      </trkpt>
      <trkpt lat="50.08888" lon="5.2188">
        <ele>222</ele>
        <time>2018-07-29T10:33:36Z</time>
      </trkpt>
      <trkpt lat="50.08889" lon="5.21898">
        <ele>222</ele>
        <time>2018-07-29T10:33:47Z</time>
      </trkpt>
      <trkpt lat="50.0889" lon="5.21917">
        <ele>221</ele>
        <time>2018-07-29T10:33:58Z</time>
      </trkpt>
      <trkpt lat="50.08891" lon="5.21932">
        <ele>220</ele>
        <time>2018-07-29T10:34:08Z</time>
      </trkpt>
      <trkpt lat="50.08893" lon="5.21947">
        <ele>220</ele>
        <time>2018-07-29T10:34:18Z</time>
      </trkpt>
      <trkpt lat="50.08894" lon="5.21965">
        <ele>220</ele>
        <time>2018-07-29T10:34:28Z</time>
      </trkpt>
      <trkpt lat="50.08896" lon="5.21983">
        <ele>219</ele>
        <time>2018-07-29T10:34:39Z</time>
      </trkpt>
      <trkpt lat="50.08899" lon="5.22">
        <ele>219</ele>
        <time>2018-07-29T10:34:49Z</time>
      </trkpt>
      <trkpt lat="50.08902" lon="5.22017">
        <ele>218</ele>
        <time>2018-07-29T10:35:00Z</time>
      </trkpt>
      <trkpt lat="50.08902" lon="5.22023">
        <ele>219</ele>
        <time>2018-07-29T10:35:11Z</time>
      </trkpt>
      <trkpt lat="50.08904" lon="5.22041">
        <ele>219</ele>
        <time>2018-07-29T10:35:21Z</time>
      </trkpt>
      <trkpt lat="50.08906" lon="5.22063">
        <ele>218</ele>
        <time>2018-07-29T10:35:33Z</time>
      </trkpt>
      <trkpt lat="50.08908" lon="5.22079">
        <ele>217</ele>
        <time>2018-07-29T10:35:43Z</time>
      </trkpt>
      <trkpt lat="50.08909" lon="5.2209">
        <ele>216</ele>
        <time>2018-07-29T10:35:54Z</time>
      </trkpt>
      <trkpt lat="50.08912" lon="5.22107">
        <ele>216</ele>
        <time>2018-07-29T10:36:04Z</time>
      </trkpt>
      <trkpt lat="50.08913" lon="5.2212">
        <ele>215</ele>
        <time>2018-07-29T10:36:14Z</time>
      </trkpt>
      <trkpt lat="50.08913" lon="5.22134">
        <ele>215</ele>
        <time>2018-07-29T10:36:25Z</time>
      </trkpt>
      <trkpt lat="50.08916" lon="5.22149">
        <ele>213</ele>
        <time>2018-07-29T10:36:35Z</time>
      </trkpt>
      <trkpt lat="50.08917" lon="5.22164">
        <ele>213</ele>
        <time>2018-07-29T10:36:45Z</time>
      </trkpt>
      <trkpt lat="50.08915" lon="5.22182">
        <ele>213</ele>
        <time>2018-07-29T10:36:56Z</time>
      </trkpt>
      <trkpt lat="50.08909" lon="5.22197">
        <ele>213</ele>
        <time>2018-07-29T10:37:06Z</time>
      </trkpt>
      <trkpt lat="50.089" lon="5.22209">
        <ele>213</ele>
        <time>2018-07-29T10:37:16Z</time>
      </trkpt>
      <trkpt lat="50.08892" lon="5.22219">
        <ele>212</ele>
        <time>2018-07-29T10:37:27Z</time>
      </trkpt>
      <trkpt lat="50.08888" lon="5.22224">
        <ele>211</ele>
        <time>2018-07-29T10:37:37Z</time>
      </trkpt>
      <trkpt lat="50.08887" lon="5.22233">
        <ele>210</ele>
        <time>2018-07-29T10:37:47Z</time>
      </trkpt>
      <trkpt lat="50.08886" lon="5.22236">
        <ele>210</ele>
        <time>2018-07-29T10:37:48Z</time>
      </trkpt>
    </trkseg>
  </trk>
</gpx>